<?xml version="1.0" encoding="UTF-8"?>
<gpx xmlns="http://www.topografix.com/GPX/1/1" xmlns:gpxx="http://www.garmin.com/xmlschemas/GpxExtensions/v3" xmlns:gpxtpx="http://www.garmin.com/xmlschemas/TrackPointExtension/v1" version="1.1" creator="GPSBabel - http://www.gpsbabel.org">
  <metadata>
    <time>2020-06-02T14:29:50.062Z</time>
    <bounds minlat="52.149460000" minlon="7.628180000" maxlat="52.174510000" maxlon="7.703470000"/>
  </metadata>
  <trk>
    <trkseg>
      <trkpt lat="52.150310000" lon="7.703470000">
        <ele>49</ele>
        <time>2020-06-01T11:57:21Z</time>
      </trkpt>
      <trkpt lat="52.150310000" lon="7.703390000">
        <ele>49</ele>
        <time>2020-06-01T11:57:29Z</time>
      </trkpt>
      <trkpt lat="52.150270000" lon="7.703300000">
        <ele>49</ele>
        <time>2020-06-01T11:57:32Z</time>
      </trkpt>
      <trkpt lat="52.150250000" lon="7.703210000">
        <ele>49</ele>
        <time>2020-06-01T11:57:35Z</time>
      </trkpt>
      <trkpt lat="52.150220000" lon="7.703130000">
        <ele>49</ele>
        <time>2020-06-01T11:57:37Z</time>
      </trkpt>
      <trkpt lat="52.150200000" lon="7.703050000">
        <ele>49</ele>
        <time>2020-06-01T11:57:39Z</time>
      </trkpt>
      <trkpt lat="52.150180000" lon="7.702990000">
        <ele>49</ele>
        <time>2020-06-01T11:57:41Z</time>
      </trkpt>
      <trkpt lat="52.150160000" lon="7.702910000">
        <ele>49</ele>
        <time>2020-06-01T11:57:43Z</time>
      </trkpt>
      <trkpt lat="52.150130000" lon="7.702820000">
        <ele>49</ele>
        <time>2020-06-01T11:57:45Z</time>
      </trkpt>
      <trkpt lat="52.149910000" lon="7.702880000">
        <ele>49</ele>
        <time>2020-06-01T11:57:46Z</time>
      </trkpt>
      <trkpt lat="52.149890000" lon="7.702760000">
        <ele>49</ele>
        <time>2020-06-01T11:57:48Z</time>
      </trkpt>
      <trkpt lat="52.149870000" lon="7.702650000">
        <ele>49</ele>
        <time>2020-06-01T11:57:50Z</time>
      </trkpt>
      <trkpt lat="52.149840000" lon="7.702530000">
        <ele>49</ele>
        <time>2020-06-01T11:57:52Z</time>
      </trkpt>
      <trkpt lat="52.149820000" lon="7.702400000">
        <ele>49</ele>
        <time>2020-06-01T11:57:54Z</time>
      </trkpt>
      <trkpt lat="52.149790000" lon="7.702290000">
        <ele>49</ele>
        <time>2020-06-01T11:57:56Z</time>
      </trkpt>
      <trkpt lat="52.149770000" lon="7.702170000">
        <ele>49</ele>
        <time>2020-06-01T11:57:58Z</time>
      </trkpt>
      <trkpt lat="52.149740000" lon="7.702050000">
        <ele>49</ele>
        <time>2020-06-01T11:58:00Z</time>
      </trkpt>
      <trkpt lat="52.149720000" lon="7.701930000">
        <ele>49</ele>
        <time>2020-06-01T11:58:02Z</time>
      </trkpt>
      <trkpt lat="52.149710000" lon="7.701860000">
        <ele>49</ele>
        <time>2020-06-01T11:58:03Z</time>
      </trkpt>
      <trkpt lat="52.149680000" lon="7.701740000">
        <ele>49</ele>
        <time>2020-06-01T11:58:05Z</time>
      </trkpt>
      <trkpt lat="52.149650000" lon="7.701620000">
        <ele>49</ele>
        <time>2020-06-01T11:58:07Z</time>
      </trkpt>
      <trkpt lat="52.149640000" lon="7.701550000">
        <ele>49</ele>
        <time>2020-06-01T11:58:08Z</time>
      </trkpt>
      <trkpt lat="52.149620000" lon="7.701470000">
        <ele>49</ele>
        <time>2020-06-01T11:58:09Z</time>
      </trkpt>
      <trkpt lat="52.149600000" lon="7.701360000">
        <ele>49</ele>
        <time>2020-06-01T11:58:11Z</time>
      </trkpt>
      <trkpt lat="52.149570000" lon="7.701230000">
        <ele>49</ele>
        <time>2020-06-01T11:58:13Z</time>
      </trkpt>
      <trkpt lat="52.149550000" lon="7.701080000">
        <ele>49</ele>
        <time>2020-06-01T11:58:15Z</time>
      </trkpt>
      <trkpt lat="52.149530000" lon="7.701010000">
        <ele>49</ele>
        <time>2020-06-01T11:58:16Z</time>
      </trkpt>
      <trkpt lat="52.149510000" lon="7.700870000">
        <ele>49</ele>
        <time>2020-06-01T11:58:18Z</time>
      </trkpt>
      <trkpt lat="52.149490000" lon="7.700730000">
        <ele>49</ele>
        <time>2020-06-01T11:58:19Z</time>
      </trkpt>
      <trkpt lat="52.149470000" lon="7.700570000">
        <ele>49</ele>
        <time>2020-06-01T11:58:21Z</time>
      </trkpt>
      <trkpt lat="52.149460000" lon="7.700420000">
        <ele>49</ele>
        <time>2020-06-01T11:58:22Z</time>
      </trkpt>
      <trkpt lat="52.149460000" lon="7.700310000">
        <ele>49</ele>
        <time>2020-06-01T11:58:25Z</time>
      </trkpt>
      <trkpt lat="52.149470000" lon="7.700190000">
        <ele>49</ele>
        <time>2020-06-01T11:58:27Z</time>
      </trkpt>
      <trkpt lat="52.149620000" lon="7.700030000">
        <ele>49</ele>
        <time>2020-06-01T11:58:28Z</time>
      </trkpt>
      <trkpt lat="52.149670000" lon="7.699990000">
        <ele>49</ele>
        <time>2020-06-01T11:58:29Z</time>
      </trkpt>
      <trkpt lat="52.149710000" lon="7.699940000">
        <ele>49</ele>
        <time>2020-06-01T11:58:30Z</time>
      </trkpt>
      <trkpt lat="52.149890000" lon="7.699780000">
        <ele>49</ele>
        <time>2020-06-01T11:58:34Z</time>
      </trkpt>
      <trkpt lat="52.149930000" lon="7.699740000">
        <ele>49</ele>
        <time>2020-06-01T11:58:35Z</time>
      </trkpt>
      <trkpt lat="52.150000000" lon="7.699660000">
        <ele>49</ele>
        <time>2020-06-01T11:58:37Z</time>
      </trkpt>
      <trkpt lat="52.150070000" lon="7.699580000">
        <ele>49</ele>
        <time>2020-06-01T11:58:39Z</time>
      </trkpt>
      <trkpt lat="52.150150000" lon="7.699510000">
        <ele>49</ele>
        <time>2020-06-01T11:58:41Z</time>
      </trkpt>
      <trkpt lat="52.150190000" lon="7.699460000">
        <ele>49</ele>
        <time>2020-06-01T11:58:42Z</time>
      </trkpt>
      <trkpt lat="52.150230000" lon="7.699410000">
        <ele>49</ele>
        <time>2020-06-01T11:58:43Z</time>
      </trkpt>
      <trkpt lat="52.150270000" lon="7.699360000">
        <ele>50</ele>
        <time>2020-06-01T11:58:44Z</time>
      </trkpt>
      <trkpt lat="52.150350000" lon="7.699280000">
        <ele>50</ele>
        <time>2020-06-01T11:58:46Z</time>
      </trkpt>
      <trkpt lat="52.150390000" lon="7.699230000">
        <ele>50</ele>
        <time>2020-06-01T11:58:47Z</time>
      </trkpt>
      <trkpt lat="52.150430000" lon="7.699190000">
        <ele>50</ele>
        <time>2020-06-01T11:58:48Z</time>
      </trkpt>
      <trkpt lat="52.150470000" lon="7.699150000">
        <ele>50</ele>
        <time>2020-06-01T11:58:49Z</time>
      </trkpt>
      <trkpt lat="52.150510000" lon="7.699120000">
        <ele>50</ele>
        <time>2020-06-01T11:58:50Z</time>
      </trkpt>
      <trkpt lat="52.150590000" lon="7.699050000">
        <ele>49</ele>
        <time>2020-06-01T11:58:52Z</time>
      </trkpt>
      <trkpt lat="52.150630000" lon="7.699010000">
        <ele>49</ele>
        <time>2020-06-01T11:58:53Z</time>
      </trkpt>
      <trkpt lat="52.150680000" lon="7.698970000">
        <ele>49</ele>
        <time>2020-06-01T11:58:54Z</time>
      </trkpt>
      <trkpt lat="52.150720000" lon="7.698940000">
        <ele>49</ele>
        <time>2020-06-01T11:58:55Z</time>
      </trkpt>
      <trkpt lat="52.150770000" lon="7.698900000">
        <ele>49</ele>
        <time>2020-06-01T11:58:56Z</time>
      </trkpt>
      <trkpt lat="52.150870000" lon="7.698830000">
        <ele>49</ele>
        <time>2020-06-01T11:58:58Z</time>
      </trkpt>
      <trkpt lat="52.150920000" lon="7.698800000">
        <ele>49</ele>
        <time>2020-06-01T11:58:59Z</time>
      </trkpt>
      <trkpt lat="52.150980000" lon="7.698770000">
        <ele>49</ele>
        <time>2020-06-01T11:59:00Z</time>
      </trkpt>
      <trkpt lat="52.151020000" lon="7.698750000">
        <ele>49</ele>
        <time>2020-06-01T11:59:01Z</time>
      </trkpt>
      <trkpt lat="52.151110000" lon="7.698700000">
        <ele>48</ele>
        <time>2020-06-01T11:59:03Z</time>
      </trkpt>
      <trkpt lat="52.151200000" lon="7.698650000">
        <ele>48</ele>
        <time>2020-06-01T11:59:05Z</time>
      </trkpt>
      <trkpt lat="52.151250000" lon="7.698630000">
        <ele>48</ele>
        <time>2020-06-01T11:59:06Z</time>
      </trkpt>
      <trkpt lat="52.151290000" lon="7.698600000">
        <ele>48</ele>
        <time>2020-06-01T11:59:07Z</time>
      </trkpt>
      <trkpt lat="52.151340000" lon="7.698580000">
        <ele>48</ele>
        <time>2020-06-01T11:59:08Z</time>
      </trkpt>
      <trkpt lat="52.151390000" lon="7.698560000">
        <ele>49</ele>
        <time>2020-06-01T11:59:09Z</time>
      </trkpt>
      <trkpt lat="52.151430000" lon="7.698530000">
        <ele>49</ele>
        <time>2020-06-01T11:59:10Z</time>
      </trkpt>
      <trkpt lat="52.151520000" lon="7.698490000">
        <ele>49</ele>
        <time>2020-06-01T11:59:12Z</time>
      </trkpt>
      <trkpt lat="52.151620000" lon="7.698440000">
        <ele>49</ele>
        <time>2020-06-01T11:59:14Z</time>
      </trkpt>
      <trkpt lat="52.151670000" lon="7.698420000">
        <ele>49</ele>
        <time>2020-06-01T11:59:15Z</time>
      </trkpt>
      <trkpt lat="52.151730000" lon="7.698390000">
        <ele>49</ele>
        <time>2020-06-01T11:59:16Z</time>
      </trkpt>
      <trkpt lat="52.151780000" lon="7.698370000">
        <ele>49</ele>
        <time>2020-06-01T11:59:17Z</time>
      </trkpt>
      <trkpt lat="52.151840000" lon="7.698340000">
        <ele>49</ele>
        <time>2020-06-01T11:59:18Z</time>
      </trkpt>
      <trkpt lat="52.151900000" lon="7.698320000">
        <ele>49</ele>
        <time>2020-06-01T11:59:19Z</time>
      </trkpt>
      <trkpt lat="52.151950000" lon="7.698290000">
        <ele>49</ele>
        <time>2020-06-01T11:59:20Z</time>
      </trkpt>
      <trkpt lat="52.152000000" lon="7.698270000">
        <ele>49</ele>
        <time>2020-06-01T11:59:21Z</time>
      </trkpt>
      <trkpt lat="52.152050000" lon="7.698260000">
        <ele>48</ele>
        <time>2020-06-01T11:59:22Z</time>
      </trkpt>
      <trkpt lat="52.152110000" lon="7.698240000">
        <ele>48</ele>
        <time>2020-06-01T11:59:23Z</time>
      </trkpt>
      <trkpt lat="52.152170000" lon="7.698230000">
        <ele>48</ele>
        <time>2020-06-01T11:59:24Z</time>
      </trkpt>
      <trkpt lat="52.152220000" lon="7.698230000">
        <ele>48</ele>
        <time>2020-06-01T11:59:25Z</time>
      </trkpt>
      <trkpt lat="52.152270000" lon="7.698220000">
        <ele>48</ele>
        <time>2020-06-01T11:59:26Z</time>
      </trkpt>
      <trkpt lat="52.152320000" lon="7.698220000">
        <ele>48</ele>
        <time>2020-06-01T11:59:27Z</time>
      </trkpt>
      <trkpt lat="52.152370000" lon="7.698210000">
        <ele>48</ele>
        <time>2020-06-01T11:59:28Z</time>
      </trkpt>
      <trkpt lat="52.152420000" lon="7.698210000">
        <ele>48</ele>
        <time>2020-06-01T11:59:29Z</time>
      </trkpt>
      <trkpt lat="52.152480000" lon="7.698210000">
        <ele>48</ele>
        <time>2020-06-01T11:59:30Z</time>
      </trkpt>
      <trkpt lat="52.152530000" lon="7.698200000">
        <ele>48</ele>
        <time>2020-06-01T11:59:31Z</time>
      </trkpt>
      <trkpt lat="52.152590000" lon="7.698200000">
        <ele>48</ele>
        <time>2020-06-01T11:59:32Z</time>
      </trkpt>
      <trkpt lat="52.152640000" lon="7.698200000">
        <ele>48</ele>
        <time>2020-06-01T11:59:33Z</time>
      </trkpt>
      <trkpt lat="52.152700000" lon="7.698190000">
        <ele>48</ele>
        <time>2020-06-01T11:59:34Z</time>
      </trkpt>
      <trkpt lat="52.152740000" lon="7.698180000">
        <ele>48</ele>
        <time>2020-06-01T11:59:35Z</time>
      </trkpt>
      <trkpt lat="52.152800000" lon="7.698170000">
        <ele>48</ele>
        <time>2020-06-01T11:59:36Z</time>
      </trkpt>
      <trkpt lat="52.152860000" lon="7.698170000">
        <ele>48</ele>
        <time>2020-06-01T11:59:37Z</time>
      </trkpt>
      <trkpt lat="52.152910000" lon="7.698160000">
        <ele>48</ele>
        <time>2020-06-01T11:59:38Z</time>
      </trkpt>
      <trkpt lat="52.152960000" lon="7.698150000">
        <ele>48</ele>
        <time>2020-06-01T11:59:39Z</time>
      </trkpt>
      <trkpt lat="52.153020000" lon="7.698130000">
        <ele>49</ele>
        <time>2020-06-01T11:59:40Z</time>
      </trkpt>
      <trkpt lat="52.153070000" lon="7.698120000">
        <ele>49</ele>
        <time>2020-06-01T11:59:41Z</time>
      </trkpt>
      <trkpt lat="52.153120000" lon="7.698110000">
        <ele>49</ele>
        <time>2020-06-01T11:59:42Z</time>
      </trkpt>
      <trkpt lat="52.153170000" lon="7.698090000">
        <ele>49</ele>
        <time>2020-06-01T11:59:43Z</time>
      </trkpt>
      <trkpt lat="52.153210000" lon="7.698080000">
        <ele>49</ele>
        <time>2020-06-01T11:59:44Z</time>
      </trkpt>
      <trkpt lat="52.153260000" lon="7.698070000">
        <ele>49</ele>
        <time>2020-06-01T11:59:45Z</time>
      </trkpt>
      <trkpt lat="52.153310000" lon="7.698050000">
        <ele>50</ele>
        <time>2020-06-01T11:59:46Z</time>
      </trkpt>
      <trkpt lat="52.153350000" lon="7.698030000">
        <ele>50</ele>
        <time>2020-06-01T11:59:47Z</time>
      </trkpt>
      <trkpt lat="52.153400000" lon="7.698020000">
        <ele>50</ele>
        <time>2020-06-01T11:59:48Z</time>
      </trkpt>
      <trkpt lat="52.153450000" lon="7.698000000">
        <ele>51</ele>
        <time>2020-06-01T11:59:49Z</time>
      </trkpt>
      <trkpt lat="52.153490000" lon="7.697980000">
        <ele>51</ele>
        <time>2020-06-01T11:59:50Z</time>
      </trkpt>
      <trkpt lat="52.153540000" lon="7.697960000">
        <ele>51</ele>
        <time>2020-06-01T11:59:51Z</time>
      </trkpt>
      <trkpt lat="52.153590000" lon="7.697940000">
        <ele>51</ele>
        <time>2020-06-01T11:59:52Z</time>
      </trkpt>
      <trkpt lat="52.153630000" lon="7.697930000">
        <ele>51</ele>
        <time>2020-06-01T11:59:53Z</time>
      </trkpt>
      <trkpt lat="52.153680000" lon="7.697910000">
        <ele>52</ele>
        <time>2020-06-01T11:59:54Z</time>
      </trkpt>
      <trkpt lat="52.153730000" lon="7.697890000">
        <ele>52</ele>
        <time>2020-06-01T11:59:55Z</time>
      </trkpt>
      <trkpt lat="52.153790000" lon="7.697880000">
        <ele>52</ele>
        <time>2020-06-01T11:59:56Z</time>
      </trkpt>
      <trkpt lat="52.153840000" lon="7.697860000">
        <ele>52</ele>
        <time>2020-06-01T11:59:57Z</time>
      </trkpt>
      <trkpt lat="52.153930000" lon="7.697830000">
        <ele>52</ele>
        <time>2020-06-01T11:59:59Z</time>
      </trkpt>
      <trkpt lat="52.153980000" lon="7.697820000">
        <ele>52</ele>
        <time>2020-06-01T12:00:00Z</time>
      </trkpt>
      <trkpt lat="52.154020000" lon="7.697810000">
        <ele>52</ele>
        <time>2020-06-01T12:00:01Z</time>
      </trkpt>
      <trkpt lat="52.154110000" lon="7.697790000">
        <ele>51</ele>
        <time>2020-06-01T12:00:03Z</time>
      </trkpt>
      <trkpt lat="52.154160000" lon="7.697780000">
        <ele>51</ele>
        <time>2020-06-01T12:00:04Z</time>
      </trkpt>
      <trkpt lat="52.154210000" lon="7.697780000">
        <ele>51</ele>
        <time>2020-06-01T12:00:05Z</time>
      </trkpt>
      <trkpt lat="52.154300000" lon="7.697770000">
        <ele>51</ele>
        <time>2020-06-01T12:00:07Z</time>
      </trkpt>
      <trkpt lat="52.154390000" lon="7.697770000">
        <ele>51</ele>
        <time>2020-06-01T12:00:09Z</time>
      </trkpt>
      <trkpt lat="52.154460000" lon="7.697770000">
        <ele>51</ele>
        <time>2020-06-01T12:00:11Z</time>
      </trkpt>
      <trkpt lat="52.154530000" lon="7.697760000">
        <ele>51</ele>
        <time>2020-06-01T12:00:13Z</time>
      </trkpt>
      <trkpt lat="52.154600000" lon="7.697620000">
        <ele>51</ele>
        <time>2020-06-01T12:00:14Z</time>
      </trkpt>
      <trkpt lat="52.154590000" lon="7.697510000">
        <ele>51</ele>
        <time>2020-06-01T12:00:16Z</time>
      </trkpt>
      <trkpt lat="52.154580000" lon="7.697380000">
        <ele>51</ele>
        <time>2020-06-01T12:00:18Z</time>
      </trkpt>
      <trkpt lat="52.154570000" lon="7.697230000">
        <ele>51</ele>
        <time>2020-06-01T12:00:20Z</time>
      </trkpt>
      <trkpt lat="52.154560000" lon="7.697150000">
        <ele>51</ele>
        <time>2020-06-01T12:00:21Z</time>
      </trkpt>
      <trkpt lat="52.154550000" lon="7.697070000">
        <ele>51</ele>
        <time>2020-06-01T12:00:22Z</time>
      </trkpt>
      <trkpt lat="52.154550000" lon="7.697000000">
        <ele>51</ele>
        <time>2020-06-01T12:00:23Z</time>
      </trkpt>
      <trkpt lat="52.154540000" lon="7.696920000">
        <ele>51</ele>
        <time>2020-06-01T12:00:24Z</time>
      </trkpt>
      <trkpt lat="52.154530000" lon="7.696850000">
        <ele>51</ele>
        <time>2020-06-01T12:00:25Z</time>
      </trkpt>
      <trkpt lat="52.154520000" lon="7.696700000">
        <ele>51</ele>
        <time>2020-06-01T12:00:27Z</time>
      </trkpt>
      <trkpt lat="52.154510000" lon="7.696560000">
        <ele>51</ele>
        <time>2020-06-01T12:00:29Z</time>
      </trkpt>
      <trkpt lat="52.154490000" lon="7.696420000">
        <ele>50</ele>
        <time>2020-06-01T12:00:31Z</time>
      </trkpt>
      <trkpt lat="52.154480000" lon="7.696270000">
        <ele>50</ele>
        <time>2020-06-01T12:00:33Z</time>
      </trkpt>
      <trkpt lat="52.154470000" lon="7.696200000">
        <ele>50</ele>
        <time>2020-06-01T12:00:34Z</time>
      </trkpt>
      <trkpt lat="52.154470000" lon="7.696120000">
        <ele>50</ele>
        <time>2020-06-01T12:00:35Z</time>
      </trkpt>
      <trkpt lat="52.154460000" lon="7.696050000">
        <ele>50</ele>
        <time>2020-06-01T12:00:36Z</time>
      </trkpt>
      <trkpt lat="52.154450000" lon="7.695910000">
        <ele>50</ele>
        <time>2020-06-01T12:00:38Z</time>
      </trkpt>
      <trkpt lat="52.154430000" lon="7.695770000">
        <ele>50</ele>
        <time>2020-06-01T12:00:40Z</time>
      </trkpt>
      <trkpt lat="52.154420000" lon="7.695630000">
        <ele>50</ele>
        <time>2020-06-01T12:00:42Z</time>
      </trkpt>
      <trkpt lat="52.154410000" lon="7.695550000">
        <ele>50</ele>
        <time>2020-06-01T12:00:43Z</time>
      </trkpt>
      <trkpt lat="52.154400000" lon="7.695480000">
        <ele>50</ele>
        <time>2020-06-01T12:00:44Z</time>
      </trkpt>
      <trkpt lat="52.154400000" lon="7.695400000">
        <ele>50</ele>
        <time>2020-06-01T12:00:45Z</time>
      </trkpt>
      <trkpt lat="52.154380000" lon="7.695250000">
        <ele>50</ele>
        <time>2020-06-01T12:00:47Z</time>
      </trkpt>
      <trkpt lat="52.154370000" lon="7.695170000">
        <ele>50</ele>
        <time>2020-06-01T12:00:48Z</time>
      </trkpt>
      <trkpt lat="52.154360000" lon="7.695090000">
        <ele>50</ele>
        <time>2020-06-01T12:00:49Z</time>
      </trkpt>
      <trkpt lat="52.154340000" lon="7.694930000">
        <ele>50</ele>
        <time>2020-06-01T12:00:51Z</time>
      </trkpt>
      <trkpt lat="52.154330000" lon="7.694850000">
        <ele>50</ele>
        <time>2020-06-01T12:00:52Z</time>
      </trkpt>
      <trkpt lat="52.154320000" lon="7.694770000">
        <ele>50</ele>
        <time>2020-06-01T12:00:53Z</time>
      </trkpt>
      <trkpt lat="52.154310000" lon="7.694690000">
        <ele>50</ele>
        <time>2020-06-01T12:00:54Z</time>
      </trkpt>
      <trkpt lat="52.154300000" lon="7.694610000">
        <ele>50</ele>
        <time>2020-06-01T12:00:55Z</time>
      </trkpt>
      <trkpt lat="52.154290000" lon="7.694530000">
        <ele>50</ele>
        <time>2020-06-01T12:00:56Z</time>
      </trkpt>
      <trkpt lat="52.154280000" lon="7.694450000">
        <ele>51</ele>
        <time>2020-06-01T12:00:57Z</time>
      </trkpt>
      <trkpt lat="52.154260000" lon="7.694370000">
        <ele>51</ele>
        <time>2020-06-01T12:00:58Z</time>
      </trkpt>
      <trkpt lat="52.154250000" lon="7.694280000">
        <ele>51</ele>
        <time>2020-06-01T12:00:59Z</time>
      </trkpt>
      <trkpt lat="52.154240000" lon="7.694210000">
        <ele>51</ele>
        <time>2020-06-01T12:01:00Z</time>
      </trkpt>
      <trkpt lat="52.154230000" lon="7.694130000">
        <ele>51</ele>
        <time>2020-06-01T12:01:01Z</time>
      </trkpt>
      <trkpt lat="52.154220000" lon="7.694050000">
        <ele>51</ele>
        <time>2020-06-01T12:01:02Z</time>
      </trkpt>
      <trkpt lat="52.154210000" lon="7.693970000">
        <ele>51</ele>
        <time>2020-06-01T12:01:03Z</time>
      </trkpt>
      <trkpt lat="52.154200000" lon="7.693890000">
        <ele>51</ele>
        <time>2020-06-01T12:01:04Z</time>
      </trkpt>
      <trkpt lat="52.154190000" lon="7.693810000">
        <ele>51</ele>
        <time>2020-06-01T12:01:05Z</time>
      </trkpt>
      <trkpt lat="52.154180000" lon="7.693740000">
        <ele>51</ele>
        <time>2020-06-01T12:01:06Z</time>
      </trkpt>
      <trkpt lat="52.154160000" lon="7.693660000">
        <ele>51</ele>
        <time>2020-06-01T12:01:07Z</time>
      </trkpt>
      <trkpt lat="52.154150000" lon="7.693580000">
        <ele>51</ele>
        <time>2020-06-01T12:01:08Z</time>
      </trkpt>
      <trkpt lat="52.154140000" lon="7.693510000">
        <ele>51</ele>
        <time>2020-06-01T12:01:09Z</time>
      </trkpt>
      <trkpt lat="52.154130000" lon="7.693440000">
        <ele>51</ele>
        <time>2020-06-01T12:01:10Z</time>
      </trkpt>
      <trkpt lat="52.154120000" lon="7.693360000">
        <ele>51</ele>
        <time>2020-06-01T12:01:11Z</time>
      </trkpt>
      <trkpt lat="52.154110000" lon="7.693290000">
        <ele>51</ele>
        <time>2020-06-01T12:01:12Z</time>
      </trkpt>
      <trkpt lat="52.154100000" lon="7.693210000">
        <ele>51</ele>
        <time>2020-06-01T12:01:13Z</time>
      </trkpt>
      <trkpt lat="52.154090000" lon="7.693130000">
        <ele>51</ele>
        <time>2020-06-01T12:01:14Z</time>
      </trkpt>
      <trkpt lat="52.154080000" lon="7.693050000">
        <ele>51</ele>
        <time>2020-06-01T12:01:15Z</time>
      </trkpt>
      <trkpt lat="52.154070000" lon="7.692980000">
        <ele>51</ele>
        <time>2020-06-01T12:01:16Z</time>
      </trkpt>
      <trkpt lat="52.154050000" lon="7.692840000">
        <ele>51</ele>
        <time>2020-06-01T12:01:18Z</time>
      </trkpt>
      <trkpt lat="52.154030000" lon="7.692710000">
        <ele>50</ele>
        <time>2020-06-01T12:01:20Z</time>
      </trkpt>
      <trkpt lat="52.154010000" lon="7.692580000">
        <ele>50</ele>
        <time>2020-06-01T12:01:22Z</time>
      </trkpt>
      <trkpt lat="52.154000000" lon="7.692510000">
        <ele>50</ele>
        <time>2020-06-01T12:01:23Z</time>
      </trkpt>
      <trkpt lat="52.153990000" lon="7.692430000">
        <ele>50</ele>
        <time>2020-06-01T12:01:24Z</time>
      </trkpt>
      <trkpt lat="52.153980000" lon="7.692340000">
        <ele>50</ele>
        <time>2020-06-01T12:01:25Z</time>
      </trkpt>
      <trkpt lat="52.153970000" lon="7.692260000">
        <ele>50</ele>
        <time>2020-06-01T12:01:26Z</time>
      </trkpt>
      <trkpt lat="52.153960000" lon="7.692180000">
        <ele>50</ele>
        <time>2020-06-01T12:01:27Z</time>
      </trkpt>
      <trkpt lat="52.153950000" lon="7.692100000">
        <ele>50</ele>
        <time>2020-06-01T12:01:28Z</time>
      </trkpt>
      <trkpt lat="52.153930000" lon="7.692000000">
        <ele>50</ele>
        <time>2020-06-01T12:01:30Z</time>
      </trkpt>
      <trkpt lat="52.153910000" lon="7.691850000">
        <ele>50</ele>
        <time>2020-06-01T12:01:32Z</time>
      </trkpt>
      <trkpt lat="52.153930000" lon="7.692010000">
        <ele>50</ele>
        <time>2020-06-01T12:01:33Z</time>
      </trkpt>
      <trkpt lat="52.153890000" lon="7.691700000">
        <ele>50</ele>
        <time>2020-06-01T12:01:34Z</time>
      </trkpt>
      <trkpt lat="52.153880000" lon="7.691630000">
        <ele>50</ele>
        <time>2020-06-01T12:01:35Z</time>
      </trkpt>
      <trkpt lat="52.153870000" lon="7.691550000">
        <ele>50</ele>
        <time>2020-06-01T12:01:36Z</time>
      </trkpt>
      <trkpt lat="52.153860000" lon="7.691480000">
        <ele>50</ele>
        <time>2020-06-01T12:01:37Z</time>
      </trkpt>
      <trkpt lat="52.153850000" lon="7.691400000">
        <ele>50</ele>
        <time>2020-06-01T12:01:38Z</time>
      </trkpt>
      <trkpt lat="52.153840000" lon="7.691260000">
        <ele>50</ele>
        <time>2020-06-01T12:01:40Z</time>
      </trkpt>
      <trkpt lat="52.153820000" lon="7.690960000">
        <ele>51</ele>
        <time>2020-06-01T12:01:44Z</time>
      </trkpt>
      <trkpt lat="52.153820000" lon="7.690830000">
        <ele>51</ele>
        <time>2020-06-01T12:01:46Z</time>
      </trkpt>
      <trkpt lat="52.153810000" lon="7.690710000">
        <ele>51</ele>
        <time>2020-06-01T12:01:48Z</time>
      </trkpt>
      <trkpt lat="52.153800000" lon="7.690630000">
        <ele>51</ele>
        <time>2020-06-01T12:01:49Z</time>
      </trkpt>
      <trkpt lat="52.153800000" lon="7.690560000">
        <ele>51</ele>
        <time>2020-06-01T12:01:50Z</time>
      </trkpt>
      <trkpt lat="52.153790000" lon="7.690480000">
        <ele>51</ele>
        <time>2020-06-01T12:01:51Z</time>
      </trkpt>
      <trkpt lat="52.153790000" lon="7.690390000">
        <ele>51</ele>
        <time>2020-06-01T12:01:52Z</time>
      </trkpt>
      <trkpt lat="52.153780000" lon="7.690300000">
        <ele>51</ele>
        <time>2020-06-01T12:01:53Z</time>
      </trkpt>
      <trkpt lat="52.153780000" lon="7.690210000">
        <ele>51</ele>
        <time>2020-06-01T12:01:54Z</time>
      </trkpt>
      <trkpt lat="52.153770000" lon="7.690050000">
        <ele>50</ele>
        <time>2020-06-01T12:01:56Z</time>
      </trkpt>
      <trkpt lat="52.153770000" lon="7.689950000">
        <ele>50</ele>
        <time>2020-06-01T12:01:57Z</time>
      </trkpt>
      <trkpt lat="52.153770000" lon="7.689860000">
        <ele>50</ele>
        <time>2020-06-01T12:01:58Z</time>
      </trkpt>
      <trkpt lat="52.153770000" lon="7.689770000">
        <ele>50</ele>
        <time>2020-06-01T12:01:59Z</time>
      </trkpt>
      <trkpt lat="52.153770000" lon="7.689690000">
        <ele>50</ele>
        <time>2020-06-01T12:02:00Z</time>
      </trkpt>
      <trkpt lat="52.153770000" lon="7.689600000">
        <ele>50</ele>
        <time>2020-06-01T12:02:01Z</time>
      </trkpt>
      <trkpt lat="52.153770000" lon="7.689520000">
        <ele>50</ele>
        <time>2020-06-01T12:02:02Z</time>
      </trkpt>
      <trkpt lat="52.153770000" lon="7.689170000">
        <ele>50</ele>
        <time>2020-06-01T12:02:06Z</time>
      </trkpt>
      <trkpt lat="52.153770000" lon="7.689080000">
        <ele>50</ele>
        <time>2020-06-01T12:02:07Z</time>
      </trkpt>
      <trkpt lat="52.153780000" lon="7.689000000">
        <ele>50</ele>
        <time>2020-06-01T12:02:08Z</time>
      </trkpt>
      <trkpt lat="52.153780000" lon="7.688920000">
        <ele>50</ele>
        <time>2020-06-01T12:02:09Z</time>
      </trkpt>
      <trkpt lat="52.153780000" lon="7.688840000">
        <ele>50</ele>
        <time>2020-06-01T12:02:10Z</time>
      </trkpt>
      <trkpt lat="52.153780000" lon="7.688760000">
        <ele>50</ele>
        <time>2020-06-01T12:02:11Z</time>
      </trkpt>
      <trkpt lat="52.153780000" lon="7.688620000">
        <ele>50</ele>
        <time>2020-06-01T12:02:13Z</time>
      </trkpt>
      <trkpt lat="52.153780000" lon="7.688480000">
        <ele>50</ele>
        <time>2020-06-01T12:02:15Z</time>
      </trkpt>
      <trkpt lat="52.153780000" lon="7.688400000">
        <ele>50</ele>
        <time>2020-06-01T12:02:16Z</time>
      </trkpt>
      <trkpt lat="52.153780000" lon="7.688330000">
        <ele>50</ele>
        <time>2020-06-01T12:02:17Z</time>
      </trkpt>
      <trkpt lat="52.153780000" lon="7.688240000">
        <ele>50</ele>
        <time>2020-06-01T12:02:18Z</time>
      </trkpt>
      <trkpt lat="52.153780000" lon="7.688170000">
        <ele>50</ele>
        <time>2020-06-01T12:02:19Z</time>
      </trkpt>
      <trkpt lat="52.153780000" lon="7.688090000">
        <ele>50</ele>
        <time>2020-06-01T12:02:20Z</time>
      </trkpt>
      <trkpt lat="52.153780000" lon="7.688000000">
        <ele>50</ele>
        <time>2020-06-01T12:02:21Z</time>
      </trkpt>
      <trkpt lat="52.153780000" lon="7.687930000">
        <ele>50</ele>
        <time>2020-06-01T12:02:22Z</time>
      </trkpt>
      <trkpt lat="52.153790000" lon="7.687790000">
        <ele>50</ele>
        <time>2020-06-01T12:02:24Z</time>
      </trkpt>
      <trkpt lat="52.153790000" lon="7.687650000">
        <ele>50</ele>
        <time>2020-06-01T12:02:26Z</time>
      </trkpt>
      <trkpt lat="52.153790000" lon="7.687520000">
        <ele>50</ele>
        <time>2020-06-01T12:02:28Z</time>
      </trkpt>
      <trkpt lat="52.153790000" lon="7.687400000">
        <ele>50</ele>
        <time>2020-06-01T12:02:30Z</time>
      </trkpt>
      <trkpt lat="52.153790000" lon="7.687270000">
        <ele>50</ele>
        <time>2020-06-01T12:02:32Z</time>
      </trkpt>
      <trkpt lat="52.153790000" lon="7.687140000">
        <ele>50</ele>
        <time>2020-06-01T12:02:34Z</time>
      </trkpt>
      <trkpt lat="52.153790000" lon="7.686990000">
        <ele>50</ele>
        <time>2020-06-01T12:02:36Z</time>
      </trkpt>
      <trkpt lat="52.153790000" lon="7.686920000">
        <ele>50</ele>
        <time>2020-06-01T12:02:37Z</time>
      </trkpt>
      <trkpt lat="52.153790000" lon="7.686840000">
        <ele>50</ele>
        <time>2020-06-01T12:02:38Z</time>
      </trkpt>
      <trkpt lat="52.153790000" lon="7.686750000">
        <ele>49</ele>
        <time>2020-06-01T12:02:39Z</time>
      </trkpt>
      <trkpt lat="52.153790000" lon="7.686670000">
        <ele>49</ele>
        <time>2020-06-01T12:02:40Z</time>
      </trkpt>
      <trkpt lat="52.153790000" lon="7.686590000">
        <ele>49</ele>
        <time>2020-06-01T12:02:41Z</time>
      </trkpt>
      <trkpt lat="52.153790000" lon="7.686510000">
        <ele>49</ele>
        <time>2020-06-01T12:02:42Z</time>
      </trkpt>
      <trkpt lat="52.153790000" lon="7.686430000">
        <ele>49</ele>
        <time>2020-06-01T12:02:43Z</time>
      </trkpt>
      <trkpt lat="52.153790000" lon="7.686340000">
        <ele>49</ele>
        <time>2020-06-01T12:02:44Z</time>
      </trkpt>
      <trkpt lat="52.153790000" lon="7.686260000">
        <ele>49</ele>
        <time>2020-06-01T12:02:45Z</time>
      </trkpt>
      <trkpt lat="52.153790000" lon="7.686180000">
        <ele>49</ele>
        <time>2020-06-01T12:02:46Z</time>
      </trkpt>
      <trkpt lat="52.153790000" lon="7.686100000">
        <ele>49</ele>
        <time>2020-06-01T12:02:47Z</time>
      </trkpt>
      <trkpt lat="52.153790000" lon="7.686020000">
        <ele>49</ele>
        <time>2020-06-01T12:02:48Z</time>
      </trkpt>
      <trkpt lat="52.153790000" lon="7.685950000">
        <ele>49</ele>
        <time>2020-06-01T12:02:49Z</time>
      </trkpt>
      <trkpt lat="52.153790000" lon="7.685870000">
        <ele>49</ele>
        <time>2020-06-01T12:02:50Z</time>
      </trkpt>
      <trkpt lat="52.153790000" lon="7.685790000">
        <ele>49</ele>
        <time>2020-06-01T12:02:51Z</time>
      </trkpt>
      <trkpt lat="52.153790000" lon="7.685710000">
        <ele>49</ele>
        <time>2020-06-01T12:02:52Z</time>
      </trkpt>
      <trkpt lat="52.153790000" lon="7.685640000">
        <ele>49</ele>
        <time>2020-06-01T12:02:53Z</time>
      </trkpt>
      <trkpt lat="52.153790000" lon="7.685560000">
        <ele>49</ele>
        <time>2020-06-01T12:02:54Z</time>
      </trkpt>
      <trkpt lat="52.153790000" lon="7.685480000">
        <ele>49</ele>
        <time>2020-06-01T12:02:55Z</time>
      </trkpt>
      <trkpt lat="52.153790000" lon="7.685410000">
        <ele>49</ele>
        <time>2020-06-01T12:02:56Z</time>
      </trkpt>
      <trkpt lat="52.153790000" lon="7.685330000">
        <ele>49</ele>
        <time>2020-06-01T12:02:57Z</time>
      </trkpt>
      <trkpt lat="52.153790000" lon="7.685250000">
        <ele>49</ele>
        <time>2020-06-01T12:02:58Z</time>
      </trkpt>
      <trkpt lat="52.153790000" lon="7.685180000">
        <ele>49</ele>
        <time>2020-06-01T12:02:59Z</time>
      </trkpt>
      <trkpt lat="52.153790000" lon="7.685090000">
        <ele>50</ele>
        <time>2020-06-01T12:03:00Z</time>
      </trkpt>
      <trkpt lat="52.153790000" lon="7.685020000">
        <ele>50</ele>
        <time>2020-06-01T12:03:01Z</time>
      </trkpt>
      <trkpt lat="52.153790000" lon="7.684940000">
        <ele>50</ele>
        <time>2020-06-01T12:03:02Z</time>
      </trkpt>
      <trkpt lat="52.153790000" lon="7.684860000">
        <ele>50</ele>
        <time>2020-06-01T12:03:03Z</time>
      </trkpt>
      <trkpt lat="52.153790000" lon="7.684790000">
        <ele>50</ele>
        <time>2020-06-01T12:03:04Z</time>
      </trkpt>
      <trkpt lat="52.153790000" lon="7.684710000">
        <ele>50</ele>
        <time>2020-06-01T12:03:05Z</time>
      </trkpt>
      <trkpt lat="52.153790000" lon="7.684570000">
        <ele>50</ele>
        <time>2020-06-01T12:03:07Z</time>
      </trkpt>
      <trkpt lat="52.153790000" lon="7.684490000">
        <ele>50</ele>
        <time>2020-06-01T12:03:08Z</time>
      </trkpt>
      <trkpt lat="52.153790000" lon="7.684420000">
        <ele>50</ele>
        <time>2020-06-01T12:03:09Z</time>
      </trkpt>
      <trkpt lat="52.153790000" lon="7.684280000">
        <ele>50</ele>
        <time>2020-06-01T12:03:11Z</time>
      </trkpt>
      <trkpt lat="52.153790000" lon="7.684210000">
        <ele>50</ele>
        <time>2020-06-01T12:03:12Z</time>
      </trkpt>
      <trkpt lat="52.153790000" lon="7.684070000">
        <ele>51</ele>
        <time>2020-06-01T12:03:14Z</time>
      </trkpt>
      <trkpt lat="52.153790000" lon="7.684240000">
        <ele>51</ele>
        <time>2020-06-01T12:03:15Z</time>
      </trkpt>
      <trkpt lat="52.153790000" lon="7.683930000">
        <ele>51</ele>
        <time>2020-06-01T12:03:16Z</time>
      </trkpt>
      <trkpt lat="52.153790000" lon="7.683850000">
        <ele>51</ele>
        <time>2020-06-01T12:03:17Z</time>
      </trkpt>
      <trkpt lat="52.153790000" lon="7.683770000">
        <ele>51</ele>
        <time>2020-06-01T12:03:18Z</time>
      </trkpt>
      <trkpt lat="52.153790000" lon="7.683700000">
        <ele>51</ele>
        <time>2020-06-01T12:03:19Z</time>
      </trkpt>
      <trkpt lat="52.153800000" lon="7.683620000">
        <ele>51</ele>
        <time>2020-06-01T12:03:20Z</time>
      </trkpt>
      <trkpt lat="52.153800000" lon="7.683530000">
        <ele>51</ele>
        <time>2020-06-01T12:03:21Z</time>
      </trkpt>
      <trkpt lat="52.153800000" lon="7.683380000">
        <ele>51</ele>
        <time>2020-06-01T12:03:23Z</time>
      </trkpt>
      <trkpt lat="52.153800000" lon="7.683300000">
        <ele>51</ele>
        <time>2020-06-01T12:03:24Z</time>
      </trkpt>
      <trkpt lat="52.153800000" lon="7.683230000">
        <ele>51</ele>
        <time>2020-06-01T12:03:25Z</time>
      </trkpt>
      <trkpt lat="52.153810000" lon="7.683030000">
        <ele>51</ele>
        <time>2020-06-01T12:03:27Z</time>
      </trkpt>
      <trkpt lat="52.153820000" lon="7.682950000">
        <ele>51</ele>
        <time>2020-06-01T12:03:29Z</time>
      </trkpt>
      <trkpt lat="52.153830000" lon="7.682870000">
        <ele>51</ele>
        <time>2020-06-01T12:03:30Z</time>
      </trkpt>
      <trkpt lat="52.153860000" lon="7.682730000">
        <ele>51</ele>
        <time>2020-06-01T12:03:32Z</time>
      </trkpt>
      <trkpt lat="52.153900000" lon="7.682600000">
        <ele>51</ele>
        <time>2020-06-01T12:03:34Z</time>
      </trkpt>
      <trkpt lat="52.153920000" lon="7.682480000">
        <ele>51</ele>
        <time>2020-06-01T12:03:36Z</time>
      </trkpt>
      <trkpt lat="52.153950000" lon="7.682380000">
        <ele>51</ele>
        <time>2020-06-01T12:03:38Z</time>
      </trkpt>
      <trkpt lat="52.153970000" lon="7.682280000">
        <ele>51</ele>
        <time>2020-06-01T12:03:40Z</time>
      </trkpt>
      <trkpt lat="52.154000000" lon="7.682170000">
        <ele>52</ele>
        <time>2020-06-01T12:03:42Z</time>
      </trkpt>
      <trkpt lat="52.154020000" lon="7.682050000">
        <ele>52</ele>
        <time>2020-06-01T12:03:44Z</time>
      </trkpt>
      <trkpt lat="52.154050000" lon="7.681920000">
        <ele>52</ele>
        <time>2020-06-01T12:03:46Z</time>
      </trkpt>
      <trkpt lat="52.154080000" lon="7.681790000">
        <ele>52</ele>
        <time>2020-06-01T12:03:48Z</time>
      </trkpt>
      <trkpt lat="52.154100000" lon="7.681720000">
        <ele>52</ele>
        <time>2020-06-01T12:03:49Z</time>
      </trkpt>
      <trkpt lat="52.154120000" lon="7.681640000">
        <ele>52</ele>
        <time>2020-06-01T12:03:50Z</time>
      </trkpt>
      <trkpt lat="52.154150000" lon="7.681500000">
        <ele>53</ele>
        <time>2020-06-01T12:03:52Z</time>
      </trkpt>
      <trkpt lat="52.154170000" lon="7.681430000">
        <ele>53</ele>
        <time>2020-06-01T12:03:53Z</time>
      </trkpt>
      <trkpt lat="52.154190000" lon="7.681290000">
        <ele>53</ele>
        <time>2020-06-01T12:03:55Z</time>
      </trkpt>
      <trkpt lat="52.154220000" lon="7.681160000">
        <ele>53</ele>
        <time>2020-06-01T12:03:57Z</time>
      </trkpt>
      <trkpt lat="52.154250000" lon="7.681030000">
        <ele>53</ele>
        <time>2020-06-01T12:03:59Z</time>
      </trkpt>
      <trkpt lat="52.154270000" lon="7.680900000">
        <ele>53</ele>
        <time>2020-06-01T12:04:01Z</time>
      </trkpt>
      <trkpt lat="52.154290000" lon="7.680790000">
        <ele>53</ele>
        <time>2020-06-01T12:04:03Z</time>
      </trkpt>
      <trkpt lat="52.154310000" lon="7.680690000">
        <ele>53</ele>
        <time>2020-06-01T12:04:05Z</time>
      </trkpt>
      <trkpt lat="52.154330000" lon="7.680610000">
        <ele>53</ele>
        <time>2020-06-01T12:04:07Z</time>
      </trkpt>
      <trkpt lat="52.154380000" lon="7.680430000">
        <ele>53</ele>
        <time>2020-06-01T12:04:10Z</time>
      </trkpt>
      <trkpt lat="52.154420000" lon="7.680300000">
        <ele>52</ele>
        <time>2020-06-01T12:04:12Z</time>
      </trkpt>
      <trkpt lat="52.154430000" lon="7.680130000">
        <ele>52</ele>
        <time>2020-06-01T12:04:14Z</time>
      </trkpt>
      <trkpt lat="52.154430000" lon="7.680040000">
        <ele>52</ele>
        <time>2020-06-01T12:04:15Z</time>
      </trkpt>
      <trkpt lat="52.154430000" lon="7.679900000">
        <ele>52</ele>
        <time>2020-06-01T12:04:17Z</time>
      </trkpt>
      <trkpt lat="52.154430000" lon="7.679820000">
        <ele>52</ele>
        <time>2020-06-01T12:04:18Z</time>
      </trkpt>
      <trkpt lat="52.154440000" lon="7.679740000">
        <ele>52</ele>
        <time>2020-06-01T12:04:19Z</time>
      </trkpt>
      <trkpt lat="52.154440000" lon="7.679650000">
        <ele>52</ele>
        <time>2020-06-01T12:04:20Z</time>
      </trkpt>
      <trkpt lat="52.154440000" lon="7.679570000">
        <ele>51</ele>
        <time>2020-06-01T12:04:21Z</time>
      </trkpt>
      <trkpt lat="52.154440000" lon="7.679480000">
        <ele>51</ele>
        <time>2020-06-01T12:04:22Z</time>
      </trkpt>
      <trkpt lat="52.154440000" lon="7.679400000">
        <ele>51</ele>
        <time>2020-06-01T12:04:23Z</time>
      </trkpt>
      <trkpt lat="52.154440000" lon="7.679320000">
        <ele>51</ele>
        <time>2020-06-01T12:04:24Z</time>
      </trkpt>
      <trkpt lat="52.154440000" lon="7.679230000">
        <ele>51</ele>
        <time>2020-06-01T12:04:25Z</time>
      </trkpt>
      <trkpt lat="52.154440000" lon="7.679140000">
        <ele>51</ele>
        <time>2020-06-01T12:04:26Z</time>
      </trkpt>
      <trkpt lat="52.154440000" lon="7.679070000">
        <ele>51</ele>
        <time>2020-06-01T12:04:27Z</time>
      </trkpt>
      <trkpt lat="52.154440000" lon="7.678980000">
        <ele>51</ele>
        <time>2020-06-01T12:04:28Z</time>
      </trkpt>
      <trkpt lat="52.154440000" lon="7.678900000">
        <ele>51</ele>
        <time>2020-06-01T12:04:29Z</time>
      </trkpt>
      <trkpt lat="52.154440000" lon="7.678820000">
        <ele>51</ele>
        <time>2020-06-01T12:04:30Z</time>
      </trkpt>
      <trkpt lat="52.154450000" lon="7.678750000">
        <ele>52</ele>
        <time>2020-06-01T12:04:31Z</time>
      </trkpt>
      <trkpt lat="52.154450000" lon="7.678670000">
        <ele>52</ele>
        <time>2020-06-01T12:04:32Z</time>
      </trkpt>
      <trkpt lat="52.154450000" lon="7.678590000">
        <ele>52</ele>
        <time>2020-06-01T12:04:33Z</time>
      </trkpt>
      <trkpt lat="52.154450000" lon="7.678440000">
        <ele>52</ele>
        <time>2020-06-01T12:04:35Z</time>
      </trkpt>
      <trkpt lat="52.154450000" lon="7.678360000">
        <ele>53</ele>
        <time>2020-06-01T12:04:36Z</time>
      </trkpt>
      <trkpt lat="52.154450000" lon="7.678220000">
        <ele>53</ele>
        <time>2020-06-01T12:04:38Z</time>
      </trkpt>
      <trkpt lat="52.154450000" lon="7.678130000">
        <ele>53</ele>
        <time>2020-06-01T12:04:39Z</time>
      </trkpt>
      <trkpt lat="52.154450000" lon="7.678060000">
        <ele>53</ele>
        <time>2020-06-01T12:04:40Z</time>
      </trkpt>
      <trkpt lat="52.154450000" lon="7.677980000">
        <ele>53</ele>
        <time>2020-06-01T12:04:41Z</time>
      </trkpt>
      <trkpt lat="52.154450000" lon="7.677900000">
        <ele>53</ele>
        <time>2020-06-01T12:04:42Z</time>
      </trkpt>
      <trkpt lat="52.154450000" lon="7.677820000">
        <ele>53</ele>
        <time>2020-06-01T12:04:43Z</time>
      </trkpt>
      <trkpt lat="52.154460000" lon="7.677740000">
        <ele>53</ele>
        <time>2020-06-01T12:04:44Z</time>
      </trkpt>
      <trkpt lat="52.154460000" lon="7.677670000">
        <ele>53</ele>
        <time>2020-06-01T12:04:45Z</time>
      </trkpt>
      <trkpt lat="52.154460000" lon="7.677590000">
        <ele>53</ele>
        <time>2020-06-01T12:04:46Z</time>
      </trkpt>
      <trkpt lat="52.154460000" lon="7.677510000">
        <ele>53</ele>
        <time>2020-06-01T12:04:47Z</time>
      </trkpt>
      <trkpt lat="52.154460000" lon="7.677420000">
        <ele>54</ele>
        <time>2020-06-01T12:04:48Z</time>
      </trkpt>
      <trkpt lat="52.154460000" lon="7.677280000">
        <ele>54</ele>
        <time>2020-06-01T12:04:50Z</time>
      </trkpt>
      <trkpt lat="52.154460000" lon="7.677120000">
        <ele>55</ele>
        <time>2020-06-01T12:04:52Z</time>
      </trkpt>
      <trkpt lat="52.154460000" lon="7.677040000">
        <ele>55</ele>
        <time>2020-06-01T12:04:53Z</time>
      </trkpt>
      <trkpt lat="52.154460000" lon="7.676900000">
        <ele>56</ele>
        <time>2020-06-01T12:04:55Z</time>
      </trkpt>
      <trkpt lat="52.154460000" lon="7.676760000">
        <ele>57</ele>
        <time>2020-06-01T12:04:57Z</time>
      </trkpt>
      <trkpt lat="52.154460000" lon="7.676690000">
        <ele>57</ele>
        <time>2020-06-01T12:04:58Z</time>
      </trkpt>
      <trkpt lat="52.154460000" lon="7.676610000">
        <ele>57</ele>
        <time>2020-06-01T12:04:59Z</time>
      </trkpt>
      <trkpt lat="52.154460000" lon="7.676530000">
        <ele>57</ele>
        <time>2020-06-01T12:05:00Z</time>
      </trkpt>
      <trkpt lat="52.154460000" lon="7.676460000">
        <ele>58</ele>
        <time>2020-06-01T12:05:01Z</time>
      </trkpt>
      <trkpt lat="52.154460000" lon="7.676310000">
        <ele>59</ele>
        <time>2020-06-01T12:05:03Z</time>
      </trkpt>
      <trkpt lat="52.154460000" lon="7.676190000">
        <ele>59</ele>
        <time>2020-06-01T12:05:05Z</time>
      </trkpt>
      <trkpt lat="52.154460000" lon="7.676070000">
        <ele>60</ele>
        <time>2020-06-01T12:05:07Z</time>
      </trkpt>
      <trkpt lat="52.154460000" lon="7.675950000">
        <ele>60</ele>
        <time>2020-06-01T12:05:09Z</time>
      </trkpt>
      <trkpt lat="52.154460000" lon="7.675830000">
        <ele>61</ele>
        <time>2020-06-01T12:05:11Z</time>
      </trkpt>
      <trkpt lat="52.154460000" lon="7.675690000">
        <ele>61</ele>
        <time>2020-06-01T12:05:13Z</time>
      </trkpt>
      <trkpt lat="52.154460000" lon="7.675620000">
        <ele>62</ele>
        <time>2020-06-01T12:05:14Z</time>
      </trkpt>
      <trkpt lat="52.154470000" lon="7.675540000">
        <ele>62</ele>
        <time>2020-06-01T12:05:16Z</time>
      </trkpt>
      <trkpt lat="52.154500000" lon="7.675380000">
        <ele>63</ele>
        <time>2020-06-01T12:05:18Z</time>
      </trkpt>
      <trkpt lat="52.154540000" lon="7.675280000">
        <ele>63</ele>
        <time>2020-06-01T12:05:20Z</time>
      </trkpt>
      <trkpt lat="52.154580000" lon="7.675170000">
        <ele>64</ele>
        <time>2020-06-01T12:05:22Z</time>
      </trkpt>
      <trkpt lat="52.154630000" lon="7.675050000">
        <ele>64</ele>
        <time>2020-06-01T12:05:24Z</time>
      </trkpt>
      <trkpt lat="52.154650000" lon="7.674990000">
        <ele>65</ele>
        <time>2020-06-01T12:05:25Z</time>
      </trkpt>
      <trkpt lat="52.154700000" lon="7.674880000">
        <ele>65</ele>
        <time>2020-06-01T12:05:27Z</time>
      </trkpt>
      <trkpt lat="52.154740000" lon="7.674760000">
        <ele>66</ele>
        <time>2020-06-01T12:05:29Z</time>
      </trkpt>
      <trkpt lat="52.154780000" lon="7.674640000">
        <ele>67</ele>
        <time>2020-06-01T12:05:31Z</time>
      </trkpt>
      <trkpt lat="52.154820000" lon="7.674510000">
        <ele>67</ele>
        <time>2020-06-01T12:05:33Z</time>
      </trkpt>
      <trkpt lat="52.154860000" lon="7.674390000">
        <ele>68</ele>
        <time>2020-06-01T12:05:35Z</time>
      </trkpt>
      <trkpt lat="52.154890000" lon="7.674320000">
        <ele>68</ele>
        <time>2020-06-01T12:05:36Z</time>
      </trkpt>
      <trkpt lat="52.154930000" lon="7.674190000">
        <ele>69</ele>
        <time>2020-06-01T12:05:38Z</time>
      </trkpt>
      <trkpt lat="52.154970000" lon="7.674080000">
        <ele>69</ele>
        <time>2020-06-01T12:05:40Z</time>
      </trkpt>
      <trkpt lat="52.155010000" lon="7.673960000">
        <ele>70</ele>
        <time>2020-06-01T12:05:42Z</time>
      </trkpt>
      <trkpt lat="52.155030000" lon="7.673890000">
        <ele>70</ele>
        <time>2020-06-01T12:05:43Z</time>
      </trkpt>
      <trkpt lat="52.155070000" lon="7.673790000">
        <ele>70</ele>
        <time>2020-06-01T12:05:45Z</time>
      </trkpt>
      <trkpt lat="52.155110000" lon="7.673670000">
        <ele>70</ele>
        <time>2020-06-01T12:05:47Z</time>
      </trkpt>
      <trkpt lat="52.155130000" lon="7.673610000">
        <ele>70</ele>
        <time>2020-06-01T12:05:48Z</time>
      </trkpt>
      <trkpt lat="52.155170000" lon="7.673490000">
        <ele>70</ele>
        <time>2020-06-01T12:05:50Z</time>
      </trkpt>
      <trkpt lat="52.155200000" lon="7.673380000">
        <ele>70</ele>
        <time>2020-06-01T12:05:52Z</time>
      </trkpt>
      <trkpt lat="52.155250000" lon="7.673250000">
        <ele>71</ele>
        <time>2020-06-01T12:05:54Z</time>
      </trkpt>
      <trkpt lat="52.155270000" lon="7.673190000">
        <ele>71</ele>
        <time>2020-06-01T12:05:55Z</time>
      </trkpt>
      <trkpt lat="52.155290000" lon="7.673120000">
        <ele>71</ele>
        <time>2020-06-01T12:05:56Z</time>
      </trkpt>
      <trkpt lat="52.155330000" lon="7.673010000">
        <ele>71</ele>
        <time>2020-06-01T12:05:58Z</time>
      </trkpt>
      <trkpt lat="52.155370000" lon="7.672900000">
        <ele>71</ele>
        <time>2020-06-01T12:06:00Z</time>
      </trkpt>
      <trkpt lat="52.155410000" lon="7.672790000">
        <ele>71</ele>
        <time>2020-06-01T12:06:02Z</time>
      </trkpt>
      <trkpt lat="52.155440000" lon="7.672680000">
        <ele>71</ele>
        <time>2020-06-01T12:06:04Z</time>
      </trkpt>
      <trkpt lat="52.155480000" lon="7.672570000">
        <ele>71</ele>
        <time>2020-06-01T12:06:06Z</time>
      </trkpt>
      <trkpt lat="52.155520000" lon="7.672470000">
        <ele>71</ele>
        <time>2020-06-01T12:06:08Z</time>
      </trkpt>
      <trkpt lat="52.155540000" lon="7.672400000">
        <ele>71</ele>
        <time>2020-06-01T12:06:09Z</time>
      </trkpt>
      <trkpt lat="52.155560000" lon="7.672320000">
        <ele>71</ele>
        <time>2020-06-01T12:06:10Z</time>
      </trkpt>
      <trkpt lat="52.155590000" lon="7.672240000">
        <ele>70</ele>
        <time>2020-06-01T12:06:11Z</time>
      </trkpt>
      <trkpt lat="52.155620000" lon="7.672170000">
        <ele>70</ele>
        <time>2020-06-01T12:06:12Z</time>
      </trkpt>
      <trkpt lat="52.155640000" lon="7.672110000">
        <ele>70</ele>
        <time>2020-06-01T12:06:13Z</time>
      </trkpt>
      <trkpt lat="52.155680000" lon="7.672000000">
        <ele>70</ele>
        <time>2020-06-01T12:06:14Z</time>
      </trkpt>
      <trkpt lat="52.155720000" lon="7.671900000">
        <ele>70</ele>
        <time>2020-06-01T12:06:16Z</time>
      </trkpt>
      <trkpt lat="52.155760000" lon="7.671820000">
        <ele>69</ele>
        <time>2020-06-01T12:06:17Z</time>
      </trkpt>
      <trkpt lat="52.155800000" lon="7.671770000">
        <ele>69</ele>
        <time>2020-06-01T12:06:18Z</time>
      </trkpt>
      <trkpt lat="52.155890000" lon="7.671660000">
        <ele>68</ele>
        <time>2020-06-01T12:06:20Z</time>
      </trkpt>
      <trkpt lat="52.155940000" lon="7.671610000">
        <ele>68</ele>
        <time>2020-06-01T12:06:21Z</time>
      </trkpt>
      <trkpt lat="52.155990000" lon="7.671550000">
        <ele>67</ele>
        <time>2020-06-01T12:06:22Z</time>
      </trkpt>
      <trkpt lat="52.156030000" lon="7.671500000">
        <ele>67</ele>
        <time>2020-06-01T12:06:23Z</time>
      </trkpt>
      <trkpt lat="52.156070000" lon="7.671450000">
        <ele>67</ele>
        <time>2020-06-01T12:06:24Z</time>
      </trkpt>
      <trkpt lat="52.156120000" lon="7.671400000">
        <ele>67</ele>
        <time>2020-06-01T12:06:25Z</time>
      </trkpt>
      <trkpt lat="52.156160000" lon="7.671350000">
        <ele>67</ele>
        <time>2020-06-01T12:06:26Z</time>
      </trkpt>
      <trkpt lat="52.156210000" lon="7.671300000">
        <ele>66</ele>
        <time>2020-06-01T12:06:27Z</time>
      </trkpt>
      <trkpt lat="52.156260000" lon="7.671250000">
        <ele>66</ele>
        <time>2020-06-01T12:06:28Z</time>
      </trkpt>
      <trkpt lat="52.156300000" lon="7.671190000">
        <ele>65</ele>
        <time>2020-06-01T12:06:29Z</time>
      </trkpt>
      <trkpt lat="52.156350000" lon="7.671140000">
        <ele>65</ele>
        <time>2020-06-01T12:06:30Z</time>
      </trkpt>
      <trkpt lat="52.156410000" lon="7.671080000">
        <ele>64</ele>
        <time>2020-06-01T12:06:31Z</time>
      </trkpt>
      <trkpt lat="52.156460000" lon="7.671020000">
        <ele>64</ele>
        <time>2020-06-01T12:06:32Z</time>
      </trkpt>
      <trkpt lat="52.156500000" lon="7.670970000">
        <ele>64</ele>
        <time>2020-06-01T12:06:33Z</time>
      </trkpt>
      <trkpt lat="52.156560000" lon="7.670910000">
        <ele>63</ele>
        <time>2020-06-01T12:06:34Z</time>
      </trkpt>
      <trkpt lat="52.156610000" lon="7.670850000">
        <ele>63</ele>
        <time>2020-06-01T12:06:35Z</time>
      </trkpt>
      <trkpt lat="52.156660000" lon="7.670790000">
        <ele>62</ele>
        <time>2020-06-01T12:06:36Z</time>
      </trkpt>
      <trkpt lat="52.156720000" lon="7.670730000">
        <ele>62</ele>
        <time>2020-06-01T12:06:37Z</time>
      </trkpt>
      <trkpt lat="52.156780000" lon="7.670670000">
        <ele>61</ele>
        <time>2020-06-01T12:06:38Z</time>
      </trkpt>
      <trkpt lat="52.156830000" lon="7.670610000">
        <ele>61</ele>
        <time>2020-06-01T12:06:39Z</time>
      </trkpt>
      <trkpt lat="52.156890000" lon="7.670550000">
        <ele>60</ele>
        <time>2020-06-01T12:06:40Z</time>
      </trkpt>
      <trkpt lat="52.156950000" lon="7.670480000">
        <ele>60</ele>
        <time>2020-06-01T12:06:41Z</time>
      </trkpt>
      <trkpt lat="52.157000000" lon="7.670420000">
        <ele>59</ele>
        <time>2020-06-01T12:06:42Z</time>
      </trkpt>
      <trkpt lat="52.157030000" lon="7.670370000">
        <ele>59</ele>
        <time>2020-06-01T12:06:43Z</time>
      </trkpt>
      <trkpt lat="52.157160000" lon="7.670190000">
        <ele>58</ele>
        <time>2020-06-01T12:06:45Z</time>
      </trkpt>
      <trkpt lat="52.157210000" lon="7.670100000">
        <ele>57</ele>
        <time>2020-06-01T12:06:46Z</time>
      </trkpt>
      <trkpt lat="52.157260000" lon="7.670020000">
        <ele>57</ele>
        <time>2020-06-01T12:06:48Z</time>
      </trkpt>
      <trkpt lat="52.157290000" lon="7.669960000">
        <ele>56</ele>
        <time>2020-06-01T12:06:49Z</time>
      </trkpt>
      <trkpt lat="52.157330000" lon="7.669890000">
        <ele>56</ele>
        <time>2020-06-01T12:06:50Z</time>
      </trkpt>
      <trkpt lat="52.157360000" lon="7.669830000">
        <ele>56</ele>
        <time>2020-06-01T12:06:51Z</time>
      </trkpt>
      <trkpt lat="52.157410000" lon="7.669750000">
        <ele>55</ele>
        <time>2020-06-01T12:06:53Z</time>
      </trkpt>
      <trkpt lat="52.157450000" lon="7.669670000">
        <ele>55</ele>
        <time>2020-06-01T12:06:56Z</time>
      </trkpt>
      <trkpt lat="52.157490000" lon="7.669610000">
        <ele>55</ele>
        <time>2020-06-01T12:07:02Z</time>
      </trkpt>
      <trkpt lat="52.157530000" lon="7.669540000">
        <ele>55</ele>
        <time>2020-06-01T12:07:05Z</time>
      </trkpt>
      <trkpt lat="52.157560000" lon="7.669470000">
        <ele>54</ele>
        <time>2020-06-01T12:07:07Z</time>
      </trkpt>
      <trkpt lat="52.157620000" lon="7.669370000">
        <ele>54</ele>
        <time>2020-06-01T12:07:09Z</time>
      </trkpt>
      <trkpt lat="52.157650000" lon="7.669320000">
        <ele>54</ele>
        <time>2020-06-01T12:07:10Z</time>
      </trkpt>
      <trkpt lat="52.157680000" lon="7.669260000">
        <ele>54</ele>
        <time>2020-06-01T12:07:11Z</time>
      </trkpt>
      <trkpt lat="52.157710000" lon="7.669210000">
        <ele>54</ele>
        <time>2020-06-01T12:07:12Z</time>
      </trkpt>
      <trkpt lat="52.157770000" lon="7.669100000">
        <ele>54</ele>
        <time>2020-06-01T12:07:14Z</time>
      </trkpt>
      <trkpt lat="52.157830000" lon="7.669000000">
        <ele>54</ele>
        <time>2020-06-01T12:07:16Z</time>
      </trkpt>
      <trkpt lat="52.157890000" lon="7.668900000">
        <ele>54</ele>
        <time>2020-06-01T12:07:18Z</time>
      </trkpt>
      <trkpt lat="52.157950000" lon="7.668800000">
        <ele>54</ele>
        <time>2020-06-01T12:07:20Z</time>
      </trkpt>
      <trkpt lat="52.157980000" lon="7.668740000">
        <ele>54</ele>
        <time>2020-06-01T12:07:21Z</time>
      </trkpt>
      <trkpt lat="52.158040000" lon="7.668640000">
        <ele>55</ele>
        <time>2020-06-01T12:07:23Z</time>
      </trkpt>
      <trkpt lat="52.158090000" lon="7.668540000">
        <ele>55</ele>
        <time>2020-06-01T12:07:25Z</time>
      </trkpt>
      <trkpt lat="52.158140000" lon="7.668470000">
        <ele>55</ele>
        <time>2020-06-01T12:07:27Z</time>
      </trkpt>
      <trkpt lat="52.158180000" lon="7.668380000">
        <ele>55</ele>
        <time>2020-06-01T12:07:29Z</time>
      </trkpt>
      <trkpt lat="52.158220000" lon="7.668310000">
        <ele>55</ele>
        <time>2020-06-01T12:07:31Z</time>
      </trkpt>
      <trkpt lat="52.158260000" lon="7.668240000">
        <ele>55</ele>
        <time>2020-06-01T12:07:33Z</time>
      </trkpt>
      <trkpt lat="52.158330000" lon="7.668110000">
        <ele>55</ele>
        <time>2020-06-01T12:07:36Z</time>
      </trkpt>
      <trkpt lat="52.158380000" lon="7.668020000">
        <ele>55</ele>
        <time>2020-06-01T12:07:38Z</time>
      </trkpt>
      <trkpt lat="52.158430000" lon="7.667930000">
        <ele>55</ele>
        <time>2020-06-01T12:07:40Z</time>
      </trkpt>
      <trkpt lat="52.158480000" lon="7.667830000">
        <ele>55</ele>
        <time>2020-06-01T12:07:42Z</time>
      </trkpt>
      <trkpt lat="52.158530000" lon="7.667740000">
        <ele>56</ele>
        <time>2020-06-01T12:07:44Z</time>
      </trkpt>
      <trkpt lat="52.158580000" lon="7.667640000">
        <ele>56</ele>
        <time>2020-06-01T12:07:46Z</time>
      </trkpt>
      <trkpt lat="52.158640000" lon="7.667540000">
        <ele>56</ele>
        <time>2020-06-01T12:07:48Z</time>
      </trkpt>
      <trkpt lat="52.158690000" lon="7.667440000">
        <ele>56</ele>
        <time>2020-06-01T12:07:50Z</time>
      </trkpt>
      <trkpt lat="52.158740000" lon="7.667350000">
        <ele>56</ele>
        <time>2020-06-01T12:07:52Z</time>
      </trkpt>
      <trkpt lat="52.158790000" lon="7.667260000">
        <ele>56</ele>
        <time>2020-06-01T12:07:54Z</time>
      </trkpt>
      <trkpt lat="52.158820000" lon="7.667200000">
        <ele>56</ele>
        <time>2020-06-01T12:07:55Z</time>
      </trkpt>
      <trkpt lat="52.158880000" lon="7.667090000">
        <ele>56</ele>
        <time>2020-06-01T12:07:57Z</time>
      </trkpt>
      <trkpt lat="52.158950000" lon="7.666970000">
        <ele>56</ele>
        <time>2020-06-01T12:07:59Z</time>
      </trkpt>
      <trkpt lat="52.158980000" lon="7.666910000">
        <ele>56</ele>
        <time>2020-06-01T12:08:00Z</time>
      </trkpt>
      <trkpt lat="52.159010000" lon="7.666860000">
        <ele>56</ele>
        <time>2020-06-01T12:08:01Z</time>
      </trkpt>
      <trkpt lat="52.159060000" lon="7.666770000">
        <ele>57</ele>
        <time>2020-06-01T12:08:03Z</time>
      </trkpt>
      <trkpt lat="52.159100000" lon="7.666680000">
        <ele>57</ele>
        <time>2020-06-01T12:08:05Z</time>
      </trkpt>
      <trkpt lat="52.159140000" lon="7.666600000">
        <ele>57</ele>
        <time>2020-06-01T12:08:07Z</time>
      </trkpt>
      <trkpt lat="52.159180000" lon="7.666530000">
        <ele>57</ele>
        <time>2020-06-01T12:08:09Z</time>
      </trkpt>
      <trkpt lat="52.159250000" lon="7.666420000">
        <ele>56</ele>
        <time>2020-06-01T12:08:11Z</time>
      </trkpt>
      <trkpt lat="52.159290000" lon="7.666340000">
        <ele>56</ele>
        <time>2020-06-01T12:08:13Z</time>
      </trkpt>
      <trkpt lat="52.159340000" lon="7.666240000">
        <ele>56</ele>
        <time>2020-06-01T12:08:15Z</time>
      </trkpt>
      <trkpt lat="52.159370000" lon="7.666190000">
        <ele>56</ele>
        <time>2020-06-01T12:08:16Z</time>
      </trkpt>
      <trkpt lat="52.159430000" lon="7.666080000">
        <ele>56</ele>
        <time>2020-06-01T12:08:18Z</time>
      </trkpt>
      <trkpt lat="52.159460000" lon="7.666030000">
        <ele>56</ele>
        <time>2020-06-01T12:08:19Z</time>
      </trkpt>
      <trkpt lat="52.159490000" lon="7.665970000">
        <ele>56</ele>
        <time>2020-06-01T12:08:20Z</time>
      </trkpt>
      <trkpt lat="52.159520000" lon="7.665920000">
        <ele>56</ele>
        <time>2020-06-01T12:08:21Z</time>
      </trkpt>
      <trkpt lat="52.159560000" lon="7.665860000">
        <ele>56</ele>
        <time>2020-06-01T12:08:22Z</time>
      </trkpt>
      <trkpt lat="52.159590000" lon="7.665800000">
        <ele>56</ele>
        <time>2020-06-01T12:08:23Z</time>
      </trkpt>
      <trkpt lat="52.159630000" lon="7.665730000">
        <ele>56</ele>
        <time>2020-06-01T12:08:24Z</time>
      </trkpt>
      <trkpt lat="52.159660000" lon="7.665670000">
        <ele>56</ele>
        <time>2020-06-01T12:08:25Z</time>
      </trkpt>
      <trkpt lat="52.159690000" lon="7.665610000">
        <ele>55</ele>
        <time>2020-06-01T12:08:26Z</time>
      </trkpt>
      <trkpt lat="52.159730000" lon="7.665550000">
        <ele>55</ele>
        <time>2020-06-01T12:08:27Z</time>
      </trkpt>
      <trkpt lat="52.159770000" lon="7.665480000">
        <ele>55</ele>
        <time>2020-06-01T12:08:28Z</time>
      </trkpt>
      <trkpt lat="52.159800000" lon="7.665420000">
        <ele>55</ele>
        <time>2020-06-01T12:08:29Z</time>
      </trkpt>
      <trkpt lat="52.159830000" lon="7.665360000">
        <ele>55</ele>
        <time>2020-06-01T12:08:30Z</time>
      </trkpt>
      <trkpt lat="52.159870000" lon="7.665300000">
        <ele>55</ele>
        <time>2020-06-01T12:08:31Z</time>
      </trkpt>
      <trkpt lat="52.159930000" lon="7.665180000">
        <ele>55</ele>
        <time>2020-06-01T12:08:33Z</time>
      </trkpt>
      <trkpt lat="52.159960000" lon="7.665130000">
        <ele>55</ele>
        <time>2020-06-01T12:08:34Z</time>
      </trkpt>
      <trkpt lat="52.160000000" lon="7.665060000">
        <ele>55</ele>
        <time>2020-06-01T12:08:35Z</time>
      </trkpt>
      <trkpt lat="52.160030000" lon="7.665000000">
        <ele>55</ele>
        <time>2020-06-01T12:08:36Z</time>
      </trkpt>
      <trkpt lat="52.160070000" lon="7.664940000">
        <ele>55</ele>
        <time>2020-06-01T12:08:37Z</time>
      </trkpt>
      <trkpt lat="52.160100000" lon="7.664870000">
        <ele>55</ele>
        <time>2020-06-01T12:08:38Z</time>
      </trkpt>
      <trkpt lat="52.160140000" lon="7.664790000">
        <ele>54</ele>
        <time>2020-06-01T12:08:39Z</time>
      </trkpt>
      <trkpt lat="52.160180000" lon="7.664730000">
        <ele>54</ele>
        <time>2020-06-01T12:08:40Z</time>
      </trkpt>
      <trkpt lat="52.160210000" lon="7.664660000">
        <ele>54</ele>
        <time>2020-06-01T12:08:41Z</time>
      </trkpt>
      <trkpt lat="52.160250000" lon="7.664600000">
        <ele>54</ele>
        <time>2020-06-01T12:08:42Z</time>
      </trkpt>
      <trkpt lat="52.160290000" lon="7.664530000">
        <ele>54</ele>
        <time>2020-06-01T12:08:43Z</time>
      </trkpt>
      <trkpt lat="52.160320000" lon="7.664470000">
        <ele>54</ele>
        <time>2020-06-01T12:08:44Z</time>
      </trkpt>
      <trkpt lat="52.160360000" lon="7.664390000">
        <ele>54</ele>
        <time>2020-06-01T12:08:45Z</time>
      </trkpt>
      <trkpt lat="52.160400000" lon="7.664320000">
        <ele>54</ele>
        <time>2020-06-01T12:08:46Z</time>
      </trkpt>
      <trkpt lat="52.160440000" lon="7.664250000">
        <ele>54</ele>
        <time>2020-06-01T12:08:47Z</time>
      </trkpt>
      <trkpt lat="52.160470000" lon="7.664200000">
        <ele>54</ele>
        <time>2020-06-01T12:08:48Z</time>
      </trkpt>
      <trkpt lat="52.160500000" lon="7.664140000">
        <ele>54</ele>
        <time>2020-06-01T12:08:49Z</time>
      </trkpt>
      <trkpt lat="52.160540000" lon="7.664060000">
        <ele>54</ele>
        <time>2020-06-01T12:08:50Z</time>
      </trkpt>
      <trkpt lat="52.160580000" lon="7.663990000">
        <ele>54</ele>
        <time>2020-06-01T12:08:51Z</time>
      </trkpt>
      <trkpt lat="52.160610000" lon="7.663930000">
        <ele>53</ele>
        <time>2020-06-01T12:08:52Z</time>
      </trkpt>
      <trkpt lat="52.160650000" lon="7.663860000">
        <ele>53</ele>
        <time>2020-06-01T12:08:53Z</time>
      </trkpt>
      <trkpt lat="52.160690000" lon="7.663790000">
        <ele>53</ele>
        <time>2020-06-01T12:08:54Z</time>
      </trkpt>
      <trkpt lat="52.160720000" lon="7.663730000">
        <ele>53</ele>
        <time>2020-06-01T12:08:55Z</time>
      </trkpt>
      <trkpt lat="52.160750000" lon="7.663670000">
        <ele>53</ele>
        <time>2020-06-01T12:08:56Z</time>
      </trkpt>
      <trkpt lat="52.160780000" lon="7.663610000">
        <ele>53</ele>
        <time>2020-06-01T12:08:57Z</time>
      </trkpt>
      <trkpt lat="52.160820000" lon="7.663540000">
        <ele>53</ele>
        <time>2020-06-01T12:08:58Z</time>
      </trkpt>
      <trkpt lat="52.160860000" lon="7.663470000">
        <ele>53</ele>
        <time>2020-06-01T12:08:59Z</time>
      </trkpt>
      <trkpt lat="52.160900000" lon="7.663400000">
        <ele>53</ele>
        <time>2020-06-01T12:09:00Z</time>
      </trkpt>
      <trkpt lat="52.160930000" lon="7.663340000">
        <ele>53</ele>
        <time>2020-06-01T12:09:01Z</time>
      </trkpt>
      <trkpt lat="52.160980000" lon="7.663250000">
        <ele>52</ele>
        <time>2020-06-01T12:09:03Z</time>
      </trkpt>
      <trkpt lat="52.161030000" lon="7.663160000">
        <ele>52</ele>
        <time>2020-06-01T12:09:05Z</time>
      </trkpt>
      <trkpt lat="52.161080000" lon="7.663060000">
        <ele>52</ele>
        <time>2020-06-01T12:09:07Z</time>
      </trkpt>
      <trkpt lat="52.161130000" lon="7.662960000">
        <ele>52</ele>
        <time>2020-06-01T12:09:09Z</time>
      </trkpt>
      <trkpt lat="52.161180000" lon="7.662860000">
        <ele>52</ele>
        <time>2020-06-01T12:09:11Z</time>
      </trkpt>
      <trkpt lat="52.161220000" lon="7.662800000">
        <ele>52</ele>
        <time>2020-06-01T12:09:12Z</time>
      </trkpt>
      <trkpt lat="52.161250000" lon="7.662740000">
        <ele>52</ele>
        <time>2020-06-01T12:09:13Z</time>
      </trkpt>
      <trkpt lat="52.161290000" lon="7.662680000">
        <ele>52</ele>
        <time>2020-06-01T12:09:14Z</time>
      </trkpt>
      <trkpt lat="52.161320000" lon="7.662620000">
        <ele>52</ele>
        <time>2020-06-01T12:09:15Z</time>
      </trkpt>
      <trkpt lat="52.161350000" lon="7.662550000">
        <ele>52</ele>
        <time>2020-06-01T12:09:16Z</time>
      </trkpt>
      <trkpt lat="52.161380000" lon="7.662490000">
        <ele>52</ele>
        <time>2020-06-01T12:09:17Z</time>
      </trkpt>
      <trkpt lat="52.161420000" lon="7.662420000">
        <ele>51</ele>
        <time>2020-06-01T12:09:18Z</time>
      </trkpt>
      <trkpt lat="52.161460000" lon="7.662360000">
        <ele>51</ele>
        <time>2020-06-01T12:09:19Z</time>
      </trkpt>
      <trkpt lat="52.161490000" lon="7.662300000">
        <ele>51</ele>
        <time>2020-06-01T12:09:20Z</time>
      </trkpt>
      <trkpt lat="52.161520000" lon="7.662230000">
        <ele>51</ele>
        <time>2020-06-01T12:09:21Z</time>
      </trkpt>
      <trkpt lat="52.161560000" lon="7.662160000">
        <ele>51</ele>
        <time>2020-06-01T12:09:22Z</time>
      </trkpt>
      <trkpt lat="52.161600000" lon="7.662090000">
        <ele>51</ele>
        <time>2020-06-01T12:09:23Z</time>
      </trkpt>
      <trkpt lat="52.161640000" lon="7.662020000">
        <ele>51</ele>
        <time>2020-06-01T12:09:24Z</time>
      </trkpt>
      <trkpt lat="52.161680000" lon="7.661940000">
        <ele>51</ele>
        <time>2020-06-01T12:09:25Z</time>
      </trkpt>
      <trkpt lat="52.161710000" lon="7.661880000">
        <ele>50</ele>
        <time>2020-06-01T12:09:26Z</time>
      </trkpt>
      <trkpt lat="52.161750000" lon="7.661820000">
        <ele>50</ele>
        <time>2020-06-01T12:09:27Z</time>
      </trkpt>
      <trkpt lat="52.161780000" lon="7.661760000">
        <ele>50</ele>
        <time>2020-06-01T12:09:28Z</time>
      </trkpt>
      <trkpt lat="52.161810000" lon="7.661700000">
        <ele>50</ele>
        <time>2020-06-01T12:09:29Z</time>
      </trkpt>
      <trkpt lat="52.161850000" lon="7.661630000">
        <ele>50</ele>
        <time>2020-06-01T12:09:30Z</time>
      </trkpt>
      <trkpt lat="52.161880000" lon="7.661580000">
        <ele>49</ele>
        <time>2020-06-01T12:09:31Z</time>
      </trkpt>
      <trkpt lat="52.161910000" lon="7.661520000">
        <ele>49</ele>
        <time>2020-06-01T12:09:32Z</time>
      </trkpt>
      <trkpt lat="52.161940000" lon="7.661460000">
        <ele>49</ele>
        <time>2020-06-01T12:09:33Z</time>
      </trkpt>
      <trkpt lat="52.161970000" lon="7.661400000">
        <ele>49</ele>
        <time>2020-06-01T12:09:34Z</time>
      </trkpt>
      <trkpt lat="52.162000000" lon="7.661340000">
        <ele>49</ele>
        <time>2020-06-01T12:09:35Z</time>
      </trkpt>
      <trkpt lat="52.162040000" lon="7.661270000">
        <ele>49</ele>
        <time>2020-06-01T12:09:36Z</time>
      </trkpt>
      <trkpt lat="52.162070000" lon="7.661210000">
        <ele>48</ele>
        <time>2020-06-01T12:09:37Z</time>
      </trkpt>
      <trkpt lat="52.162110000" lon="7.661150000">
        <ele>48</ele>
        <time>2020-06-01T12:09:38Z</time>
      </trkpt>
      <trkpt lat="52.162140000" lon="7.661080000">
        <ele>48</ele>
        <time>2020-06-01T12:09:39Z</time>
      </trkpt>
      <trkpt lat="52.162180000" lon="7.661010000">
        <ele>48</ele>
        <time>2020-06-01T12:09:40Z</time>
      </trkpt>
      <trkpt lat="52.162220000" lon="7.660940000">
        <ele>48</ele>
        <time>2020-06-01T12:09:41Z</time>
      </trkpt>
      <trkpt lat="52.162250000" lon="7.660870000">
        <ele>48</ele>
        <time>2020-06-01T12:09:42Z</time>
      </trkpt>
      <trkpt lat="52.162290000" lon="7.660800000">
        <ele>48</ele>
        <time>2020-06-01T12:09:43Z</time>
      </trkpt>
      <trkpt lat="52.162330000" lon="7.660730000">
        <ele>48</ele>
        <time>2020-06-01T12:09:44Z</time>
      </trkpt>
      <trkpt lat="52.162360000" lon="7.660670000">
        <ele>48</ele>
        <time>2020-06-01T12:09:45Z</time>
      </trkpt>
      <trkpt lat="52.162400000" lon="7.660610000">
        <ele>48</ele>
        <time>2020-06-01T12:09:46Z</time>
      </trkpt>
      <trkpt lat="52.162430000" lon="7.660550000">
        <ele>48</ele>
        <time>2020-06-01T12:09:47Z</time>
      </trkpt>
      <trkpt lat="52.162460000" lon="7.660490000">
        <ele>48</ele>
        <time>2020-06-01T12:09:48Z</time>
      </trkpt>
      <trkpt lat="52.162490000" lon="7.660420000">
        <ele>48</ele>
        <time>2020-06-01T12:09:49Z</time>
      </trkpt>
      <trkpt lat="52.162530000" lon="7.660360000">
        <ele>48</ele>
        <time>2020-06-01T12:09:50Z</time>
      </trkpt>
      <trkpt lat="52.162560000" lon="7.660300000">
        <ele>48</ele>
        <time>2020-06-01T12:09:51Z</time>
      </trkpt>
      <trkpt lat="52.162590000" lon="7.660240000">
        <ele>48</ele>
        <time>2020-06-01T12:09:52Z</time>
      </trkpt>
      <trkpt lat="52.162620000" lon="7.660190000">
        <ele>48</ele>
        <time>2020-06-01T12:09:53Z</time>
      </trkpt>
      <trkpt lat="52.162660000" lon="7.660130000">
        <ele>48</ele>
        <time>2020-06-01T12:09:54Z</time>
      </trkpt>
      <trkpt lat="52.162690000" lon="7.660080000">
        <ele>48</ele>
        <time>2020-06-01T12:09:55Z</time>
      </trkpt>
      <trkpt lat="52.162810000" lon="7.659900000">
        <ele>48</ele>
        <time>2020-06-01T12:09:58Z</time>
      </trkpt>
      <trkpt lat="52.162850000" lon="7.659850000">
        <ele>48</ele>
        <time>2020-06-01T12:09:59Z</time>
      </trkpt>
      <trkpt lat="52.162910000" lon="7.659790000">
        <ele>48</ele>
        <time>2020-06-01T12:10:01Z</time>
      </trkpt>
      <trkpt lat="52.162950000" lon="7.659740000">
        <ele>48</ele>
        <time>2020-06-01T12:10:02Z</time>
      </trkpt>
      <trkpt lat="52.162990000" lon="7.659690000">
        <ele>48</ele>
        <time>2020-06-01T12:10:03Z</time>
      </trkpt>
      <trkpt lat="52.163050000" lon="7.659620000">
        <ele>48</ele>
        <time>2020-06-01T12:10:05Z</time>
      </trkpt>
      <trkpt lat="52.163090000" lon="7.659570000">
        <ele>48</ele>
        <time>2020-06-01T12:10:06Z</time>
      </trkpt>
      <trkpt lat="52.163120000" lon="7.659530000">
        <ele>48</ele>
        <time>2020-06-01T12:10:07Z</time>
      </trkpt>
      <trkpt lat="52.163160000" lon="7.659490000">
        <ele>48</ele>
        <time>2020-06-01T12:10:08Z</time>
      </trkpt>
      <trkpt lat="52.163200000" lon="7.659450000">
        <ele>48</ele>
        <time>2020-06-01T12:10:09Z</time>
      </trkpt>
      <trkpt lat="52.163260000" lon="7.659370000">
        <ele>48</ele>
        <time>2020-06-01T12:10:11Z</time>
      </trkpt>
      <trkpt lat="52.163330000" lon="7.659290000">
        <ele>48</ele>
        <time>2020-06-01T12:10:13Z</time>
      </trkpt>
      <trkpt lat="52.163390000" lon="7.659220000">
        <ele>48</ele>
        <time>2020-06-01T12:10:15Z</time>
      </trkpt>
      <trkpt lat="52.163460000" lon="7.659130000">
        <ele>48</ele>
        <time>2020-06-01T12:10:17Z</time>
      </trkpt>
      <trkpt lat="52.163530000" lon="7.659060000">
        <ele>47</ele>
        <time>2020-06-01T12:10:19Z</time>
      </trkpt>
      <trkpt lat="52.163590000" lon="7.658980000">
        <ele>47</ele>
        <time>2020-06-01T12:10:21Z</time>
      </trkpt>
      <trkpt lat="52.163660000" lon="7.658910000">
        <ele>47</ele>
        <time>2020-06-01T12:10:23Z</time>
      </trkpt>
      <trkpt lat="52.163730000" lon="7.658820000">
        <ele>47</ele>
        <time>2020-06-01T12:10:25Z</time>
      </trkpt>
      <trkpt lat="52.163800000" lon="7.658740000">
        <ele>47</ele>
        <time>2020-06-01T12:10:27Z</time>
      </trkpt>
      <trkpt lat="52.163880000" lon="7.658650000">
        <ele>47</ele>
        <time>2020-06-01T12:10:29Z</time>
      </trkpt>
      <trkpt lat="52.163950000" lon="7.658570000">
        <ele>47</ele>
        <time>2020-06-01T12:10:31Z</time>
      </trkpt>
      <trkpt lat="52.164020000" lon="7.658480000">
        <ele>47</ele>
        <time>2020-06-01T12:10:33Z</time>
      </trkpt>
      <trkpt lat="52.164100000" lon="7.658390000">
        <ele>47</ele>
        <time>2020-06-01T12:10:35Z</time>
      </trkpt>
      <trkpt lat="52.164130000" lon="7.658350000">
        <ele>47</ele>
        <time>2020-06-01T12:10:36Z</time>
      </trkpt>
      <trkpt lat="52.164170000" lon="7.658300000">
        <ele>48</ele>
        <time>2020-06-01T12:10:37Z</time>
      </trkpt>
      <trkpt lat="52.164210000" lon="7.658260000">
        <ele>48</ele>
        <time>2020-06-01T12:10:38Z</time>
      </trkpt>
      <trkpt lat="52.164250000" lon="7.658210000">
        <ele>48</ele>
        <time>2020-06-01T12:10:39Z</time>
      </trkpt>
      <trkpt lat="52.164300000" lon="7.658160000">
        <ele>47</ele>
        <time>2020-06-01T12:10:40Z</time>
      </trkpt>
      <trkpt lat="52.164330000" lon="7.658120000">
        <ele>47</ele>
        <time>2020-06-01T12:10:41Z</time>
      </trkpt>
      <trkpt lat="52.164370000" lon="7.658070000">
        <ele>47</ele>
        <time>2020-06-01T12:10:42Z</time>
      </trkpt>
      <trkpt lat="52.164410000" lon="7.658020000">
        <ele>47</ele>
        <time>2020-06-01T12:10:43Z</time>
      </trkpt>
      <trkpt lat="52.164460000" lon="7.657970000">
        <ele>47</ele>
        <time>2020-06-01T12:10:44Z</time>
      </trkpt>
      <trkpt lat="52.164500000" lon="7.657920000">
        <ele>47</ele>
        <time>2020-06-01T12:10:45Z</time>
      </trkpt>
      <trkpt lat="52.164540000" lon="7.657880000">
        <ele>47</ele>
        <time>2020-06-01T12:10:46Z</time>
      </trkpt>
      <trkpt lat="52.164580000" lon="7.657830000">
        <ele>47</ele>
        <time>2020-06-01T12:10:47Z</time>
      </trkpt>
      <trkpt lat="52.164620000" lon="7.657780000">
        <ele>46</ele>
        <time>2020-06-01T12:10:48Z</time>
      </trkpt>
      <trkpt lat="52.164660000" lon="7.657730000">
        <ele>46</ele>
        <time>2020-06-01T12:10:49Z</time>
      </trkpt>
      <trkpt lat="52.164700000" lon="7.657690000">
        <ele>46</ele>
        <time>2020-06-01T12:10:50Z</time>
      </trkpt>
      <trkpt lat="52.164740000" lon="7.657640000">
        <ele>46</ele>
        <time>2020-06-01T12:10:51Z</time>
      </trkpt>
      <trkpt lat="52.164810000" lon="7.657560000">
        <ele>46</ele>
        <time>2020-06-01T12:10:53Z</time>
      </trkpt>
      <trkpt lat="52.164850000" lon="7.657510000">
        <ele>46</ele>
        <time>2020-06-01T12:10:54Z</time>
      </trkpt>
      <trkpt lat="52.164890000" lon="7.657460000">
        <ele>46</ele>
        <time>2020-06-01T12:10:55Z</time>
      </trkpt>
      <trkpt lat="52.164930000" lon="7.657410000">
        <ele>46</ele>
        <time>2020-06-01T12:10:56Z</time>
      </trkpt>
      <trkpt lat="52.164970000" lon="7.657370000">
        <ele>46</ele>
        <time>2020-06-01T12:10:57Z</time>
      </trkpt>
      <trkpt lat="52.165010000" lon="7.657320000">
        <ele>46</ele>
        <time>2020-06-01T12:10:58Z</time>
      </trkpt>
      <trkpt lat="52.165060000" lon="7.657270000">
        <ele>46</ele>
        <time>2020-06-01T12:10:59Z</time>
      </trkpt>
      <trkpt lat="52.165100000" lon="7.657220000">
        <ele>46</ele>
        <time>2020-06-01T12:11:00Z</time>
      </trkpt>
      <trkpt lat="52.165140000" lon="7.657180000">
        <ele>46</ele>
        <time>2020-06-01T12:11:01Z</time>
      </trkpt>
      <trkpt lat="52.165180000" lon="7.657120000">
        <ele>46</ele>
        <time>2020-06-01T12:11:02Z</time>
      </trkpt>
      <trkpt lat="52.165220000" lon="7.657080000">
        <ele>46</ele>
        <time>2020-06-01T12:11:03Z</time>
      </trkpt>
      <trkpt lat="52.165260000" lon="7.657030000">
        <ele>46</ele>
        <time>2020-06-01T12:11:04Z</time>
      </trkpt>
      <trkpt lat="52.165310000" lon="7.656980000">
        <ele>47</ele>
        <time>2020-06-01T12:11:05Z</time>
      </trkpt>
      <trkpt lat="52.165350000" lon="7.656930000">
        <ele>47</ele>
        <time>2020-06-01T12:11:06Z</time>
      </trkpt>
      <trkpt lat="52.165390000" lon="7.656880000">
        <ele>47</ele>
        <time>2020-06-01T12:11:07Z</time>
      </trkpt>
      <trkpt lat="52.165430000" lon="7.656830000">
        <ele>47</ele>
        <time>2020-06-01T12:11:08Z</time>
      </trkpt>
      <trkpt lat="52.165470000" lon="7.656780000">
        <ele>47</ele>
        <time>2020-06-01T12:11:09Z</time>
      </trkpt>
      <trkpt lat="52.165520000" lon="7.656730000">
        <ele>47</ele>
        <time>2020-06-01T12:11:10Z</time>
      </trkpt>
      <trkpt lat="52.165570000" lon="7.656670000">
        <ele>47</ele>
        <time>2020-06-01T12:11:11Z</time>
      </trkpt>
      <trkpt lat="52.165620000" lon="7.656620000">
        <ele>47</ele>
        <time>2020-06-01T12:11:12Z</time>
      </trkpt>
      <trkpt lat="52.165660000" lon="7.656570000">
        <ele>47</ele>
        <time>2020-06-01T12:11:13Z</time>
      </trkpt>
      <trkpt lat="52.165710000" lon="7.656510000">
        <ele>47</ele>
        <time>2020-06-01T12:11:14Z</time>
      </trkpt>
      <trkpt lat="52.165760000" lon="7.656460000">
        <ele>47</ele>
        <time>2020-06-01T12:11:15Z</time>
      </trkpt>
      <trkpt lat="52.165800000" lon="7.656410000">
        <ele>47</ele>
        <time>2020-06-01T12:11:16Z</time>
      </trkpt>
      <trkpt lat="52.165840000" lon="7.656360000">
        <ele>47</ele>
        <time>2020-06-01T12:11:17Z</time>
      </trkpt>
      <trkpt lat="52.165880000" lon="7.656320000">
        <ele>47</ele>
        <time>2020-06-01T12:11:18Z</time>
      </trkpt>
      <trkpt lat="52.165950000" lon="7.656240000">
        <ele>47</ele>
        <time>2020-06-01T12:11:20Z</time>
      </trkpt>
      <trkpt lat="52.165990000" lon="7.656190000">
        <ele>47</ele>
        <time>2020-06-01T12:11:21Z</time>
      </trkpt>
      <trkpt lat="52.166020000" lon="7.656140000">
        <ele>47</ele>
        <time>2020-06-01T12:11:22Z</time>
      </trkpt>
      <trkpt lat="52.166100000" lon="7.656050000">
        <ele>47</ele>
        <time>2020-06-01T12:11:24Z</time>
      </trkpt>
      <trkpt lat="52.166140000" lon="7.656010000">
        <ele>47</ele>
        <time>2020-06-01T12:11:25Z</time>
      </trkpt>
      <trkpt lat="52.166180000" lon="7.655960000">
        <ele>46</ele>
        <time>2020-06-01T12:11:26Z</time>
      </trkpt>
      <trkpt lat="52.166220000" lon="7.655910000">
        <ele>46</ele>
        <time>2020-06-01T12:11:27Z</time>
      </trkpt>
      <trkpt lat="52.166260000" lon="7.655860000">
        <ele>46</ele>
        <time>2020-06-01T12:11:28Z</time>
      </trkpt>
      <trkpt lat="52.166310000" lon="7.655810000">
        <ele>46</ele>
        <time>2020-06-01T12:11:29Z</time>
      </trkpt>
      <trkpt lat="52.166350000" lon="7.655760000">
        <ele>46</ele>
        <time>2020-06-01T12:11:30Z</time>
      </trkpt>
      <trkpt lat="52.166390000" lon="7.655710000">
        <ele>46</ele>
        <time>2020-06-01T12:11:31Z</time>
      </trkpt>
      <trkpt lat="52.166440000" lon="7.655660000">
        <ele>46</ele>
        <time>2020-06-01T12:11:32Z</time>
      </trkpt>
      <trkpt lat="52.166480000" lon="7.655610000">
        <ele>46</ele>
        <time>2020-06-01T12:11:33Z</time>
      </trkpt>
      <trkpt lat="52.166520000" lon="7.655570000">
        <ele>46</ele>
        <time>2020-06-01T12:11:34Z</time>
      </trkpt>
      <trkpt lat="52.166560000" lon="7.655520000">
        <ele>46</ele>
        <time>2020-06-01T12:11:35Z</time>
      </trkpt>
      <trkpt lat="52.166600000" lon="7.655470000">
        <ele>46</ele>
        <time>2020-06-01T12:11:36Z</time>
      </trkpt>
      <trkpt lat="52.166640000" lon="7.655420000">
        <ele>46</ele>
        <time>2020-06-01T12:11:37Z</time>
      </trkpt>
      <trkpt lat="52.166690000" lon="7.655370000">
        <ele>46</ele>
        <time>2020-06-01T12:11:38Z</time>
      </trkpt>
      <trkpt lat="52.166730000" lon="7.655320000">
        <ele>46</ele>
        <time>2020-06-01T12:11:39Z</time>
      </trkpt>
      <trkpt lat="52.166780000" lon="7.655260000">
        <ele>46</ele>
        <time>2020-06-01T12:11:40Z</time>
      </trkpt>
      <trkpt lat="52.166820000" lon="7.655210000">
        <ele>46</ele>
        <time>2020-06-01T12:11:41Z</time>
      </trkpt>
      <trkpt lat="52.166860000" lon="7.655160000">
        <ele>47</ele>
        <time>2020-06-01T12:11:42Z</time>
      </trkpt>
      <trkpt lat="52.166900000" lon="7.655120000">
        <ele>47</ele>
        <time>2020-06-01T12:11:43Z</time>
      </trkpt>
      <trkpt lat="52.166960000" lon="7.655040000">
        <ele>47</ele>
        <time>2020-06-01T12:11:45Z</time>
      </trkpt>
      <trkpt lat="52.167040000" lon="7.654950000">
        <ele>47</ele>
        <time>2020-06-01T12:11:47Z</time>
      </trkpt>
      <trkpt lat="52.167110000" lon="7.654870000">
        <ele>47</ele>
        <time>2020-06-01T12:11:49Z</time>
      </trkpt>
      <trkpt lat="52.167150000" lon="7.654820000">
        <ele>47</ele>
        <time>2020-06-01T12:11:50Z</time>
      </trkpt>
      <trkpt lat="52.167200000" lon="7.654770000">
        <ele>47</ele>
        <time>2020-06-01T12:11:51Z</time>
      </trkpt>
      <trkpt lat="52.167240000" lon="7.654720000">
        <ele>47</ele>
        <time>2020-06-01T12:11:52Z</time>
      </trkpt>
      <trkpt lat="52.167290000" lon="7.654670000">
        <ele>47</ele>
        <time>2020-06-01T12:11:53Z</time>
      </trkpt>
      <trkpt lat="52.167330000" lon="7.654620000">
        <ele>47</ele>
        <time>2020-06-01T12:11:54Z</time>
      </trkpt>
      <trkpt lat="52.167370000" lon="7.654570000">
        <ele>47</ele>
        <time>2020-06-01T12:11:55Z</time>
      </trkpt>
      <trkpt lat="52.167420000" lon="7.654510000">
        <ele>47</ele>
        <time>2020-06-01T12:11:56Z</time>
      </trkpt>
      <trkpt lat="52.167460000" lon="7.654460000">
        <ele>47</ele>
        <time>2020-06-01T12:11:57Z</time>
      </trkpt>
      <trkpt lat="52.167510000" lon="7.654410000">
        <ele>47</ele>
        <time>2020-06-01T12:11:58Z</time>
      </trkpt>
      <trkpt lat="52.167550000" lon="7.654360000">
        <ele>47</ele>
        <time>2020-06-01T12:11:59Z</time>
      </trkpt>
      <trkpt lat="52.167590000" lon="7.654310000">
        <ele>47</ele>
        <time>2020-06-01T12:12:00Z</time>
      </trkpt>
      <trkpt lat="52.167630000" lon="7.654270000">
        <ele>47</ele>
        <time>2020-06-01T12:12:01Z</time>
      </trkpt>
      <trkpt lat="52.167670000" lon="7.654220000">
        <ele>47</ele>
        <time>2020-06-01T12:12:02Z</time>
      </trkpt>
      <trkpt lat="52.167700000" lon="7.654180000">
        <ele>47</ele>
        <time>2020-06-01T12:12:03Z</time>
      </trkpt>
      <trkpt lat="52.167740000" lon="7.654130000">
        <ele>47</ele>
        <time>2020-06-01T12:12:04Z</time>
      </trkpt>
      <trkpt lat="52.167810000" lon="7.654050000">
        <ele>47</ele>
        <time>2020-06-01T12:12:06Z</time>
      </trkpt>
      <trkpt lat="52.167850000" lon="7.654010000">
        <ele>47</ele>
        <time>2020-06-01T12:12:07Z</time>
      </trkpt>
      <trkpt lat="52.167890000" lon="7.653960000">
        <ele>47</ele>
        <time>2020-06-01T12:12:08Z</time>
      </trkpt>
      <trkpt lat="52.167930000" lon="7.653910000">
        <ele>47</ele>
        <time>2020-06-01T12:12:09Z</time>
      </trkpt>
      <trkpt lat="52.167970000" lon="7.653870000">
        <ele>47</ele>
        <time>2020-06-01T12:12:10Z</time>
      </trkpt>
      <trkpt lat="52.168010000" lon="7.653820000">
        <ele>48</ele>
        <time>2020-06-01T12:12:11Z</time>
      </trkpt>
      <trkpt lat="52.168040000" lon="7.653780000">
        <ele>48</ele>
        <time>2020-06-01T12:12:12Z</time>
      </trkpt>
      <trkpt lat="52.168090000" lon="7.653730000">
        <ele>48</ele>
        <time>2020-06-01T12:12:13Z</time>
      </trkpt>
      <trkpt lat="52.168130000" lon="7.653680000">
        <ele>48</ele>
        <time>2020-06-01T12:12:14Z</time>
      </trkpt>
      <trkpt lat="52.168170000" lon="7.653630000">
        <ele>48</ele>
        <time>2020-06-01T12:12:15Z</time>
      </trkpt>
      <trkpt lat="52.168210000" lon="7.653590000">
        <ele>48</ele>
        <time>2020-06-01T12:12:16Z</time>
      </trkpt>
      <trkpt lat="52.168250000" lon="7.653540000">
        <ele>48</ele>
        <time>2020-06-01T12:12:17Z</time>
      </trkpt>
      <trkpt lat="52.168290000" lon="7.653490000">
        <ele>48</ele>
        <time>2020-06-01T12:12:18Z</time>
      </trkpt>
      <trkpt lat="52.168330000" lon="7.653450000">
        <ele>48</ele>
        <time>2020-06-01T12:12:19Z</time>
      </trkpt>
      <trkpt lat="52.168370000" lon="7.653400000">
        <ele>48</ele>
        <time>2020-06-01T12:12:20Z</time>
      </trkpt>
      <trkpt lat="52.168410000" lon="7.653350000">
        <ele>48</ele>
        <time>2020-06-01T12:12:21Z</time>
      </trkpt>
      <trkpt lat="52.168450000" lon="7.653300000">
        <ele>48</ele>
        <time>2020-06-01T12:12:22Z</time>
      </trkpt>
      <trkpt lat="52.168490000" lon="7.653250000">
        <ele>48</ele>
        <time>2020-06-01T12:12:23Z</time>
      </trkpt>
      <trkpt lat="52.168530000" lon="7.653200000">
        <ele>48</ele>
        <time>2020-06-01T12:12:24Z</time>
      </trkpt>
      <trkpt lat="52.168570000" lon="7.653160000">
        <ele>48</ele>
        <time>2020-06-01T12:12:25Z</time>
      </trkpt>
      <trkpt lat="52.168650000" lon="7.653070000">
        <ele>49</ele>
        <time>2020-06-01T12:12:27Z</time>
      </trkpt>
      <trkpt lat="52.168680000" lon="7.653030000">
        <ele>49</ele>
        <time>2020-06-01T12:12:28Z</time>
      </trkpt>
      <trkpt lat="52.168750000" lon="7.652950000">
        <ele>49</ele>
        <time>2020-06-01T12:12:30Z</time>
      </trkpt>
      <trkpt lat="52.168820000" lon="7.652870000">
        <ele>49</ele>
        <time>2020-06-01T12:12:32Z</time>
      </trkpt>
      <trkpt lat="52.168860000" lon="7.652830000">
        <ele>49</ele>
        <time>2020-06-01T12:12:34Z</time>
      </trkpt>
      <trkpt lat="52.168980000" lon="7.652620000">
        <ele>50</ele>
        <time>2020-06-01T12:12:35Z</time>
      </trkpt>
      <trkpt lat="52.168950000" lon="7.652560000">
        <ele>50</ele>
        <time>2020-06-01T12:12:38Z</time>
      </trkpt>
      <trkpt lat="52.168910000" lon="7.652470000">
        <ele>50</ele>
        <time>2020-06-01T12:12:40Z</time>
      </trkpt>
      <trkpt lat="52.168880000" lon="7.652390000">
        <ele>50</ele>
        <time>2020-06-01T12:12:42Z</time>
      </trkpt>
      <trkpt lat="52.168840000" lon="7.652300000">
        <ele>51</ele>
        <time>2020-06-01T12:12:44Z</time>
      </trkpt>
      <trkpt lat="52.168800000" lon="7.652220000">
        <ele>51</ele>
        <time>2020-06-01T12:12:46Z</time>
      </trkpt>
      <trkpt lat="52.168760000" lon="7.652120000">
        <ele>51</ele>
        <time>2020-06-01T12:12:48Z</time>
      </trkpt>
      <trkpt lat="52.168720000" lon="7.652010000">
        <ele>51</ele>
        <time>2020-06-01T12:12:50Z</time>
      </trkpt>
      <trkpt lat="52.168690000" lon="7.651910000">
        <ele>51</ele>
        <time>2020-06-01T12:12:52Z</time>
      </trkpt>
      <trkpt lat="52.168650000" lon="7.651820000">
        <ele>51</ele>
        <time>2020-06-01T12:12:54Z</time>
      </trkpt>
      <trkpt lat="52.168620000" lon="7.651730000">
        <ele>51</ele>
        <time>2020-06-01T12:12:56Z</time>
      </trkpt>
      <trkpt lat="52.168580000" lon="7.651630000">
        <ele>51</ele>
        <time>2020-06-01T12:12:58Z</time>
      </trkpt>
      <trkpt lat="52.168530000" lon="7.651510000">
        <ele>50</ele>
        <time>2020-06-01T12:13:00Z</time>
      </trkpt>
      <trkpt lat="52.168490000" lon="7.651390000">
        <ele>50</ele>
        <time>2020-06-01T12:13:02Z</time>
      </trkpt>
      <trkpt lat="52.168450000" lon="7.651280000">
        <ele>50</ele>
        <time>2020-06-01T12:13:04Z</time>
      </trkpt>
      <trkpt lat="52.168420000" lon="7.651180000">
        <ele>50</ele>
        <time>2020-06-01T12:13:06Z</time>
      </trkpt>
      <trkpt lat="52.168380000" lon="7.651080000">
        <ele>50</ele>
        <time>2020-06-01T12:13:08Z</time>
      </trkpt>
      <trkpt lat="52.168330000" lon="7.650960000">
        <ele>50</ele>
        <time>2020-06-01T12:13:10Z</time>
      </trkpt>
      <trkpt lat="52.168290000" lon="7.650840000">
        <ele>50</ele>
        <time>2020-06-01T12:13:12Z</time>
      </trkpt>
      <trkpt lat="52.168250000" lon="7.650730000">
        <ele>51</ele>
        <time>2020-06-01T12:13:14Z</time>
      </trkpt>
      <trkpt lat="52.168210000" lon="7.650620000">
        <ele>51</ele>
        <time>2020-06-01T12:13:16Z</time>
      </trkpt>
      <trkpt lat="52.168170000" lon="7.650520000">
        <ele>51</ele>
        <time>2020-06-01T12:13:18Z</time>
      </trkpt>
      <trkpt lat="52.168140000" lon="7.650430000">
        <ele>51</ele>
        <time>2020-06-01T12:13:20Z</time>
      </trkpt>
      <trkpt lat="52.168100000" lon="7.650330000">
        <ele>52</ele>
        <time>2020-06-01T12:13:22Z</time>
      </trkpt>
      <trkpt lat="52.168070000" lon="7.650240000">
        <ele>52</ele>
        <time>2020-06-01T12:13:24Z</time>
      </trkpt>
      <trkpt lat="52.168020000" lon="7.650110000">
        <ele>52</ele>
        <time>2020-06-01T12:13:26Z</time>
      </trkpt>
      <trkpt lat="52.167990000" lon="7.650030000">
        <ele>52</ele>
        <time>2020-06-01T12:13:28Z</time>
      </trkpt>
      <trkpt lat="52.167950000" lon="7.649910000">
        <ele>52</ele>
        <time>2020-06-01T12:13:30Z</time>
      </trkpt>
      <trkpt lat="52.167900000" lon="7.649800000">
        <ele>52</ele>
        <time>2020-06-01T12:13:32Z</time>
      </trkpt>
      <trkpt lat="52.167860000" lon="7.649690000">
        <ele>52</ele>
        <time>2020-06-01T12:13:34Z</time>
      </trkpt>
      <trkpt lat="52.167830000" lon="7.649620000">
        <ele>52</ele>
        <time>2020-06-01T12:13:35Z</time>
      </trkpt>
      <trkpt lat="52.167810000" lon="7.649560000">
        <ele>52</ele>
        <time>2020-06-01T12:13:36Z</time>
      </trkpt>
      <trkpt lat="52.167790000" lon="7.649490000">
        <ele>52</ele>
        <time>2020-06-01T12:13:37Z</time>
      </trkpt>
      <trkpt lat="52.167750000" lon="7.649360000">
        <ele>51</ele>
        <time>2020-06-01T12:13:39Z</time>
      </trkpt>
      <trkpt lat="52.167710000" lon="7.649240000">
        <ele>51</ele>
        <time>2020-06-01T12:13:41Z</time>
      </trkpt>
      <trkpt lat="52.167690000" lon="7.649170000">
        <ele>50</ele>
        <time>2020-06-01T12:13:42Z</time>
      </trkpt>
      <trkpt lat="52.167660000" lon="7.649100000">
        <ele>50</ele>
        <time>2020-06-01T12:13:43Z</time>
      </trkpt>
      <trkpt lat="52.167640000" lon="7.649030000">
        <ele>50</ele>
        <time>2020-06-01T12:13:44Z</time>
      </trkpt>
      <trkpt lat="52.167600000" lon="7.648920000">
        <ele>50</ele>
        <time>2020-06-01T12:13:46Z</time>
      </trkpt>
      <trkpt lat="52.167570000" lon="7.648800000">
        <ele>49</ele>
        <time>2020-06-01T12:13:48Z</time>
      </trkpt>
      <trkpt lat="52.167550000" lon="7.648730000">
        <ele>49</ele>
        <time>2020-06-01T12:13:49Z</time>
      </trkpt>
      <trkpt lat="52.167520000" lon="7.648670000">
        <ele>49</ele>
        <time>2020-06-01T12:13:50Z</time>
      </trkpt>
      <trkpt lat="52.167490000" lon="7.648590000">
        <ele>48</ele>
        <time>2020-06-01T12:13:51Z</time>
      </trkpt>
      <trkpt lat="52.167470000" lon="7.648520000">
        <ele>48</ele>
        <time>2020-06-01T12:13:52Z</time>
      </trkpt>
      <trkpt lat="52.167440000" lon="7.648450000">
        <ele>48</ele>
        <time>2020-06-01T12:13:53Z</time>
      </trkpt>
      <trkpt lat="52.167410000" lon="7.648360000">
        <ele>48</ele>
        <time>2020-06-01T12:13:54Z</time>
      </trkpt>
      <trkpt lat="52.167380000" lon="7.648270000">
        <ele>48</ele>
        <time>2020-06-01T12:13:55Z</time>
      </trkpt>
      <trkpt lat="52.167360000" lon="7.648190000">
        <ele>48</ele>
        <time>2020-06-01T12:13:56Z</time>
      </trkpt>
      <trkpt lat="52.167330000" lon="7.648110000">
        <ele>48</ele>
        <time>2020-06-01T12:13:57Z</time>
      </trkpt>
      <trkpt lat="52.167310000" lon="7.648040000">
        <ele>48</ele>
        <time>2020-06-01T12:13:58Z</time>
      </trkpt>
      <trkpt lat="52.167280000" lon="7.647920000">
        <ele>48</ele>
        <time>2020-06-01T12:14:00Z</time>
      </trkpt>
      <trkpt lat="52.167260000" lon="7.647860000">
        <ele>48</ele>
        <time>2020-06-01T12:14:01Z</time>
      </trkpt>
      <trkpt lat="52.167230000" lon="7.647780000">
        <ele>49</ele>
        <time>2020-06-01T12:14:02Z</time>
      </trkpt>
      <trkpt lat="52.167210000" lon="7.647710000">
        <ele>49</ele>
        <time>2020-06-01T12:14:03Z</time>
      </trkpt>
      <trkpt lat="52.167190000" lon="7.647630000">
        <ele>49</ele>
        <time>2020-06-01T12:14:05Z</time>
      </trkpt>
      <trkpt lat="52.167120000" lon="7.647020000">
        <ele>50</ele>
        <time>2020-06-01T12:14:08Z</time>
      </trkpt>
      <trkpt lat="52.167310000" lon="7.647060000">
        <ele>51</ele>
        <time>2020-06-01T12:14:09Z</time>
      </trkpt>
      <trkpt lat="52.167380000" lon="7.647070000">
        <ele>51</ele>
        <time>2020-06-01T12:14:10Z</time>
      </trkpt>
      <trkpt lat="52.167460000" lon="7.647070000">
        <ele>51</ele>
        <time>2020-06-01T12:14:12Z</time>
      </trkpt>
      <trkpt lat="52.167530000" lon="7.647070000">
        <ele>51</ele>
        <time>2020-06-01T12:14:14Z</time>
      </trkpt>
      <trkpt lat="52.167600000" lon="7.647050000">
        <ele>50</ele>
        <time>2020-06-01T12:14:16Z</time>
      </trkpt>
      <trkpt lat="52.167660000" lon="7.647040000">
        <ele>50</ele>
        <time>2020-06-01T12:14:17Z</time>
      </trkpt>
      <trkpt lat="52.167740000" lon="7.647010000">
        <ele>50</ele>
        <time>2020-06-01T12:14:19Z</time>
      </trkpt>
      <trkpt lat="52.167790000" lon="7.646990000">
        <ele>50</ele>
        <time>2020-06-01T12:14:20Z</time>
      </trkpt>
      <trkpt lat="52.167840000" lon="7.646980000">
        <ele>50</ele>
        <time>2020-06-01T12:14:22Z</time>
      </trkpt>
      <trkpt lat="52.167910000" lon="7.646970000">
        <ele>50</ele>
        <time>2020-06-01T12:14:23Z</time>
      </trkpt>
      <trkpt lat="52.168110000" lon="7.647020000">
        <ele>49</ele>
        <time>2020-06-01T12:14:26Z</time>
      </trkpt>
      <trkpt lat="52.168180000" lon="7.647050000">
        <ele>49</ele>
        <time>2020-06-01T12:14:27Z</time>
      </trkpt>
      <trkpt lat="52.168250000" lon="7.647080000">
        <ele>49</ele>
        <time>2020-06-01T12:14:29Z</time>
      </trkpt>
      <trkpt lat="52.168310000" lon="7.647100000">
        <ele>49</ele>
        <time>2020-06-01T12:14:31Z</time>
      </trkpt>
      <trkpt lat="52.168380000" lon="7.647130000">
        <ele>49</ele>
        <time>2020-06-01T12:14:33Z</time>
      </trkpt>
      <trkpt lat="52.168440000" lon="7.647150000">
        <ele>49</ele>
        <time>2020-06-01T12:14:35Z</time>
      </trkpt>
      <trkpt lat="52.168510000" lon="7.647180000">
        <ele>49</ele>
        <time>2020-06-01T12:14:38Z</time>
      </trkpt>
      <trkpt lat="52.168580000" lon="7.647210000">
        <ele>49</ele>
        <time>2020-06-01T12:14:40Z</time>
      </trkpt>
      <trkpt lat="52.168660000" lon="7.647240000">
        <ele>49</ele>
        <time>2020-06-01T12:14:42Z</time>
      </trkpt>
      <trkpt lat="52.168730000" lon="7.647260000">
        <ele>49</ele>
        <time>2020-06-01T12:14:44Z</time>
      </trkpt>
      <trkpt lat="52.168820000" lon="7.647300000">
        <ele>49</ele>
        <time>2020-06-01T12:14:46Z</time>
      </trkpt>
      <trkpt lat="52.168890000" lon="7.647330000">
        <ele>49</ele>
        <time>2020-06-01T12:14:48Z</time>
      </trkpt>
      <trkpt lat="52.168960000" lon="7.647350000">
        <ele>49</ele>
        <time>2020-06-01T12:14:50Z</time>
      </trkpt>
      <trkpt lat="52.169020000" lon="7.647380000">
        <ele>49</ele>
        <time>2020-06-01T12:14:52Z</time>
      </trkpt>
      <trkpt lat="52.169080000" lon="7.647400000">
        <ele>49</ele>
        <time>2020-06-01T12:14:54Z</time>
      </trkpt>
      <trkpt lat="52.169150000" lon="7.647430000">
        <ele>49</ele>
        <time>2020-06-01T12:14:56Z</time>
      </trkpt>
      <trkpt lat="52.169230000" lon="7.647460000">
        <ele>48</ele>
        <time>2020-06-01T12:14:58Z</time>
      </trkpt>
      <trkpt lat="52.169270000" lon="7.647470000">
        <ele>48</ele>
        <time>2020-06-01T12:14:59Z</time>
      </trkpt>
      <trkpt lat="52.169350000" lon="7.647510000">
        <ele>48</ele>
        <time>2020-06-01T12:15:01Z</time>
      </trkpt>
      <trkpt lat="52.169430000" lon="7.647540000">
        <ele>48</ele>
        <time>2020-06-01T12:15:03Z</time>
      </trkpt>
      <trkpt lat="52.169510000" lon="7.647570000">
        <ele>48</ele>
        <time>2020-06-01T12:15:05Z</time>
      </trkpt>
      <trkpt lat="52.169580000" lon="7.647590000">
        <ele>48</ele>
        <time>2020-06-01T12:15:07Z</time>
      </trkpt>
      <trkpt lat="52.169640000" lon="7.647620000">
        <ele>48</ele>
        <time>2020-06-01T12:15:09Z</time>
      </trkpt>
      <trkpt lat="52.169710000" lon="7.647640000">
        <ele>47</ele>
        <time>2020-06-01T12:15:11Z</time>
      </trkpt>
      <trkpt lat="52.169770000" lon="7.647670000">
        <ele>47</ele>
        <time>2020-06-01T12:15:13Z</time>
      </trkpt>
      <trkpt lat="52.169840000" lon="7.647690000">
        <ele>47</ele>
        <time>2020-06-01T12:15:15Z</time>
      </trkpt>
      <trkpt lat="52.169900000" lon="7.647720000">
        <ele>47</ele>
        <time>2020-06-01T12:15:17Z</time>
      </trkpt>
      <trkpt lat="52.169970000" lon="7.647750000">
        <ele>47</ele>
        <time>2020-06-01T12:15:19Z</time>
      </trkpt>
      <trkpt lat="52.170050000" lon="7.647780000">
        <ele>47</ele>
        <time>2020-06-01T12:15:21Z</time>
      </trkpt>
      <trkpt lat="52.170120000" lon="7.647800000">
        <ele>48</ele>
        <time>2020-06-01T12:15:23Z</time>
      </trkpt>
      <trkpt lat="52.170180000" lon="7.647830000">
        <ele>48</ele>
        <time>2020-06-01T12:15:25Z</time>
      </trkpt>
      <trkpt lat="52.170240000" lon="7.647850000">
        <ele>48</ele>
        <time>2020-06-01T12:15:27Z</time>
      </trkpt>
      <trkpt lat="52.170300000" lon="7.647870000">
        <ele>48</ele>
        <time>2020-06-01T12:15:29Z</time>
      </trkpt>
      <trkpt lat="52.170370000" lon="7.647900000">
        <ele>48</ele>
        <time>2020-06-01T12:15:31Z</time>
      </trkpt>
      <trkpt lat="52.170450000" lon="7.647930000">
        <ele>48</ele>
        <time>2020-06-01T12:15:33Z</time>
      </trkpt>
      <trkpt lat="52.170490000" lon="7.647950000">
        <ele>48</ele>
        <time>2020-06-01T12:15:34Z</time>
      </trkpt>
      <trkpt lat="52.170540000" lon="7.647960000">
        <ele>49</ele>
        <time>2020-06-01T12:15:35Z</time>
      </trkpt>
      <trkpt lat="52.170630000" lon="7.648000000">
        <ele>49</ele>
        <time>2020-06-01T12:15:37Z</time>
      </trkpt>
      <trkpt lat="52.170680000" lon="7.648020000">
        <ele>49</ele>
        <time>2020-06-01T12:15:38Z</time>
      </trkpt>
      <trkpt lat="52.170730000" lon="7.648030000">
        <ele>49</ele>
        <time>2020-06-01T12:15:39Z</time>
      </trkpt>
      <trkpt lat="52.170920000" lon="7.648100000">
        <ele>49</ele>
        <time>2020-06-01T12:15:43Z</time>
      </trkpt>
      <trkpt lat="52.170970000" lon="7.648120000">
        <ele>49</ele>
        <time>2020-06-01T12:15:44Z</time>
      </trkpt>
      <trkpt lat="52.171020000" lon="7.648140000">
        <ele>49</ele>
        <time>2020-06-01T12:15:45Z</time>
      </trkpt>
      <trkpt lat="52.171080000" lon="7.648150000">
        <ele>48</ele>
        <time>2020-06-01T12:15:46Z</time>
      </trkpt>
      <trkpt lat="52.171120000" lon="7.648170000">
        <ele>48</ele>
        <time>2020-06-01T12:15:47Z</time>
      </trkpt>
      <trkpt lat="52.171170000" lon="7.648180000">
        <ele>48</ele>
        <time>2020-06-01T12:15:48Z</time>
      </trkpt>
      <trkpt lat="52.171230000" lon="7.648190000">
        <ele>48</ele>
        <time>2020-06-01T12:15:49Z</time>
      </trkpt>
      <trkpt lat="52.171290000" lon="7.648210000">
        <ele>48</ele>
        <time>2020-06-01T12:15:50Z</time>
      </trkpt>
      <trkpt lat="52.171340000" lon="7.648220000">
        <ele>48</ele>
        <time>2020-06-01T12:15:51Z</time>
      </trkpt>
      <trkpt lat="52.171390000" lon="7.648230000">
        <ele>48</ele>
        <time>2020-06-01T12:15:52Z</time>
      </trkpt>
      <trkpt lat="52.171440000" lon="7.648230000">
        <ele>48</ele>
        <time>2020-06-01T12:15:53Z</time>
      </trkpt>
      <trkpt lat="52.171490000" lon="7.648240000">
        <ele>48</ele>
        <time>2020-06-01T12:15:54Z</time>
      </trkpt>
      <trkpt lat="52.171540000" lon="7.648250000">
        <ele>48</ele>
        <time>2020-06-01T12:15:55Z</time>
      </trkpt>
      <trkpt lat="52.171590000" lon="7.648260000">
        <ele>48</ele>
        <time>2020-06-01T12:15:56Z</time>
      </trkpt>
      <trkpt lat="52.171640000" lon="7.648260000">
        <ele>48</ele>
        <time>2020-06-01T12:15:57Z</time>
      </trkpt>
      <trkpt lat="52.171690000" lon="7.648270000">
        <ele>48</ele>
        <time>2020-06-01T12:15:58Z</time>
      </trkpt>
      <trkpt lat="52.171730000" lon="7.648280000">
        <ele>48</ele>
        <time>2020-06-01T12:15:59Z</time>
      </trkpt>
      <trkpt lat="52.171780000" lon="7.648280000">
        <ele>48</ele>
        <time>2020-06-01T12:16:00Z</time>
      </trkpt>
      <trkpt lat="52.171830000" lon="7.648280000">
        <ele>48</ele>
        <time>2020-06-01T12:16:01Z</time>
      </trkpt>
      <trkpt lat="52.171880000" lon="7.648290000">
        <ele>47</ele>
        <time>2020-06-01T12:16:02Z</time>
      </trkpt>
      <trkpt lat="52.171930000" lon="7.648290000">
        <ele>47</ele>
        <time>2020-06-01T12:16:03Z</time>
      </trkpt>
      <trkpt lat="52.171990000" lon="7.648290000">
        <ele>47</ele>
        <time>2020-06-01T12:16:04Z</time>
      </trkpt>
      <trkpt lat="52.172040000" lon="7.648290000">
        <ele>47</ele>
        <time>2020-06-01T12:16:05Z</time>
      </trkpt>
      <trkpt lat="52.172090000" lon="7.648300000">
        <ele>47</ele>
        <time>2020-06-01T12:16:06Z</time>
      </trkpt>
      <trkpt lat="52.172150000" lon="7.648300000">
        <ele>47</ele>
        <time>2020-06-01T12:16:07Z</time>
      </trkpt>
      <trkpt lat="52.172200000" lon="7.648300000">
        <ele>47</ele>
        <time>2020-06-01T12:16:08Z</time>
      </trkpt>
      <trkpt lat="52.172260000" lon="7.648300000">
        <ele>47</ele>
        <time>2020-06-01T12:16:09Z</time>
      </trkpt>
      <trkpt lat="52.172340000" lon="7.648300000">
        <ele>47</ele>
        <time>2020-06-01T12:16:10Z</time>
      </trkpt>
      <trkpt lat="52.172530000" lon="7.648290000">
        <ele>46</ele>
        <time>2020-06-01T12:16:12Z</time>
      </trkpt>
      <trkpt lat="52.172590000" lon="7.648240000">
        <ele>46</ele>
        <time>2020-06-01T12:16:16Z</time>
      </trkpt>
      <trkpt lat="52.172740000" lon="7.648090000">
        <ele>46</ele>
        <time>2020-06-01T12:16:20Z</time>
      </trkpt>
      <trkpt lat="52.172770000" lon="7.648050000">
        <ele>46</ele>
        <time>2020-06-01T12:16:21Z</time>
      </trkpt>
      <trkpt lat="52.172810000" lon="7.648000000">
        <ele>45</ele>
        <time>2020-06-01T12:16:22Z</time>
      </trkpt>
      <trkpt lat="52.172870000" lon="7.647930000">
        <ele>45</ele>
        <time>2020-06-01T12:16:24Z</time>
      </trkpt>
      <trkpt lat="52.172930000" lon="7.647850000">
        <ele>45</ele>
        <time>2020-06-01T12:16:26Z</time>
      </trkpt>
      <trkpt lat="52.172980000" lon="7.647800000">
        <ele>45</ele>
        <time>2020-06-01T12:16:28Z</time>
      </trkpt>
      <trkpt lat="52.173020000" lon="7.647760000">
        <ele>44</ele>
        <time>2020-06-01T12:16:29Z</time>
      </trkpt>
      <trkpt lat="52.173080000" lon="7.647750000">
        <ele>44</ele>
        <time>2020-06-01T12:16:33Z</time>
      </trkpt>
      <trkpt lat="52.173140000" lon="7.647740000">
        <ele>44</ele>
        <time>2020-06-01T12:16:35Z</time>
      </trkpt>
      <trkpt lat="52.173220000" lon="7.647740000">
        <ele>44</ele>
        <time>2020-06-01T12:16:37Z</time>
      </trkpt>
      <trkpt lat="52.173300000" lon="7.647740000">
        <ele>44</ele>
        <time>2020-06-01T12:16:39Z</time>
      </trkpt>
      <trkpt lat="52.173390000" lon="7.647740000">
        <ele>44</ele>
        <time>2020-06-01T12:16:41Z</time>
      </trkpt>
      <trkpt lat="52.173460000" lon="7.647740000">
        <ele>45</ele>
        <time>2020-06-01T12:16:43Z</time>
      </trkpt>
      <trkpt lat="52.173540000" lon="7.647740000">
        <ele>45</ele>
        <time>2020-06-01T12:16:45Z</time>
      </trkpt>
      <trkpt lat="52.173610000" lon="7.647740000">
        <ele>45</ele>
        <time>2020-06-01T12:16:47Z</time>
      </trkpt>
      <trkpt lat="52.173680000" lon="7.647740000">
        <ele>45</ele>
        <time>2020-06-01T12:16:49Z</time>
      </trkpt>
      <trkpt lat="52.173730000" lon="7.647740000">
        <ele>46</ele>
        <time>2020-06-01T12:16:50Z</time>
      </trkpt>
      <trkpt lat="52.173780000" lon="7.647750000">
        <ele>46</ele>
        <time>2020-06-01T12:16:51Z</time>
      </trkpt>
      <trkpt lat="52.173830000" lon="7.647750000">
        <ele>46</ele>
        <time>2020-06-01T12:16:52Z</time>
      </trkpt>
      <trkpt lat="52.173890000" lon="7.647750000">
        <ele>46</ele>
        <time>2020-06-01T12:16:53Z</time>
      </trkpt>
      <trkpt lat="52.174010000" lon="7.647760000">
        <ele>47</ele>
        <time>2020-06-01T12:16:54Z</time>
      </trkpt>
      <trkpt lat="52.174240000" lon="7.647680000">
        <ele>47</ele>
        <time>2020-06-01T12:16:55Z</time>
      </trkpt>
      <trkpt lat="52.174290000" lon="7.647600000">
        <ele>47</ele>
        <time>2020-06-01T12:16:56Z</time>
      </trkpt>
      <trkpt lat="52.174320000" lon="7.647430000">
        <ele>47</ele>
        <time>2020-06-01T12:16:58Z</time>
      </trkpt>
      <trkpt lat="52.174330000" lon="7.647350000">
        <ele>47</ele>
        <time>2020-06-01T12:16:59Z</time>
      </trkpt>
      <trkpt lat="52.174330000" lon="7.647270000">
        <ele>46</ele>
        <time>2020-06-01T12:17:00Z</time>
      </trkpt>
      <trkpt lat="52.174320000" lon="7.647120000">
        <ele>46</ele>
        <time>2020-06-01T12:17:02Z</time>
      </trkpt>
      <trkpt lat="52.174320000" lon="7.647010000">
        <ele>46</ele>
        <time>2020-06-01T12:17:04Z</time>
      </trkpt>
      <trkpt lat="52.174310000" lon="7.646880000">
        <ele>46</ele>
        <time>2020-06-01T12:17:06Z</time>
      </trkpt>
      <trkpt lat="52.174300000" lon="7.646760000">
        <ele>46</ele>
        <time>2020-06-01T12:17:08Z</time>
      </trkpt>
      <trkpt lat="52.174300000" lon="7.646690000">
        <ele>46</ele>
        <time>2020-06-01T12:17:09Z</time>
      </trkpt>
      <trkpt lat="52.174290000" lon="7.646550000">
        <ele>46</ele>
        <time>2020-06-01T12:17:11Z</time>
      </trkpt>
      <trkpt lat="52.174280000" lon="7.646470000">
        <ele>46</ele>
        <time>2020-06-01T12:17:12Z</time>
      </trkpt>
      <trkpt lat="52.174280000" lon="7.646400000">
        <ele>46</ele>
        <time>2020-06-01T12:17:13Z</time>
      </trkpt>
      <trkpt lat="52.174270000" lon="7.646320000">
        <ele>46</ele>
        <time>2020-06-01T12:17:14Z</time>
      </trkpt>
      <trkpt lat="52.174260000" lon="7.646250000">
        <ele>46</ele>
        <time>2020-06-01T12:17:15Z</time>
      </trkpt>
      <trkpt lat="52.174260000" lon="7.646170000">
        <ele>46</ele>
        <time>2020-06-01T12:17:16Z</time>
      </trkpt>
      <trkpt lat="52.174250000" lon="7.646040000">
        <ele>46</ele>
        <time>2020-06-01T12:17:18Z</time>
      </trkpt>
      <trkpt lat="52.174240000" lon="7.645970000">
        <ele>46</ele>
        <time>2020-06-01T12:17:19Z</time>
      </trkpt>
      <trkpt lat="52.174230000" lon="7.645830000">
        <ele>46</ele>
        <time>2020-06-01T12:17:21Z</time>
      </trkpt>
      <trkpt lat="52.174220000" lon="7.645680000">
        <ele>45</ele>
        <time>2020-06-01T12:17:23Z</time>
      </trkpt>
      <trkpt lat="52.174210000" lon="7.645560000">
        <ele>45</ele>
        <time>2020-06-01T12:17:25Z</time>
      </trkpt>
      <trkpt lat="52.174200000" lon="7.645430000">
        <ele>45</ele>
        <time>2020-06-01T12:17:27Z</time>
      </trkpt>
      <trkpt lat="52.174190000" lon="7.645280000">
        <ele>45</ele>
        <time>2020-06-01T12:17:29Z</time>
      </trkpt>
      <trkpt lat="52.174180000" lon="7.645140000">
        <ele>45</ele>
        <time>2020-06-01T12:17:31Z</time>
      </trkpt>
      <trkpt lat="52.174210000" lon="7.645060000">
        <ele>45</ele>
        <time>2020-06-01T12:17:32Z</time>
      </trkpt>
      <trkpt lat="52.174220000" lon="7.644980000">
        <ele>45</ele>
        <time>2020-06-01T12:17:33Z</time>
      </trkpt>
      <trkpt lat="52.174250000" lon="7.644920000">
        <ele>45</ele>
        <time>2020-06-01T12:17:34Z</time>
      </trkpt>
      <trkpt lat="52.174280000" lon="7.644850000">
        <ele>45</ele>
        <time>2020-06-01T12:17:35Z</time>
      </trkpt>
      <trkpt lat="52.174260000" lon="7.644700000">
        <ele>45</ele>
        <time>2020-06-01T12:17:36Z</time>
      </trkpt>
      <trkpt lat="52.174340000" lon="7.644600000">
        <ele>45</ele>
        <time>2020-06-01T12:17:38Z</time>
      </trkpt>
      <trkpt lat="52.174350000" lon="7.644520000">
        <ele>45</ele>
        <time>2020-06-01T12:17:39Z</time>
      </trkpt>
      <trkpt lat="52.174370000" lon="7.644440000">
        <ele>45</ele>
        <time>2020-06-01T12:17:40Z</time>
      </trkpt>
      <trkpt lat="52.174400000" lon="7.644380000">
        <ele>45</ele>
        <time>2020-06-01T12:17:41Z</time>
      </trkpt>
      <trkpt lat="52.174340000" lon="7.644320000">
        <ele>45</ele>
        <time>2020-06-01T12:17:42Z</time>
      </trkpt>
      <trkpt lat="52.174450000" lon="7.644180000">
        <ele>45</ele>
        <time>2020-06-01T12:17:44Z</time>
      </trkpt>
      <trkpt lat="52.174470000" lon="7.644050000">
        <ele>45</ele>
        <time>2020-06-01T12:17:46Z</time>
      </trkpt>
      <trkpt lat="52.174480000" lon="7.643910000">
        <ele>46</ele>
        <time>2020-06-01T12:17:48Z</time>
      </trkpt>
      <trkpt lat="52.174500000" lon="7.643780000">
        <ele>46</ele>
        <time>2020-06-01T12:17:50Z</time>
      </trkpt>
      <trkpt lat="52.174490000" lon="7.643710000">
        <ele>46</ele>
        <time>2020-06-01T12:17:51Z</time>
      </trkpt>
      <trkpt lat="52.174500000" lon="7.643580000">
        <ele>46</ele>
        <time>2020-06-01T12:17:53Z</time>
      </trkpt>
      <trkpt lat="52.174500000" lon="7.643490000">
        <ele>46</ele>
        <time>2020-06-01T12:17:54Z</time>
      </trkpt>
      <trkpt lat="52.174500000" lon="7.643380000">
        <ele>46</ele>
        <time>2020-06-01T12:17:56Z</time>
      </trkpt>
      <trkpt lat="52.174510000" lon="7.643280000">
        <ele>46</ele>
        <time>2020-06-01T12:17:57Z</time>
      </trkpt>
      <trkpt lat="52.174510000" lon="7.643160000">
        <ele>46</ele>
        <time>2020-06-01T12:17:59Z</time>
      </trkpt>
      <trkpt lat="52.174500000" lon="7.643080000">
        <ele>46</ele>
        <time>2020-06-01T12:18:00Z</time>
      </trkpt>
      <trkpt lat="52.174490000" lon="7.643000000">
        <ele>46</ele>
        <time>2020-06-01T12:18:01Z</time>
      </trkpt>
      <trkpt lat="52.174480000" lon="7.642930000">
        <ele>46</ele>
        <time>2020-06-01T12:18:02Z</time>
      </trkpt>
      <trkpt lat="52.174470000" lon="7.642850000">
        <ele>47</ele>
        <time>2020-06-01T12:18:03Z</time>
      </trkpt>
      <trkpt lat="52.174460000" lon="7.642780000">
        <ele>47</ele>
        <time>2020-06-01T12:18:04Z</time>
      </trkpt>
      <trkpt lat="52.174450000" lon="7.642710000">
        <ele>47</ele>
        <time>2020-06-01T12:18:05Z</time>
      </trkpt>
      <trkpt lat="52.174440000" lon="7.642640000">
        <ele>47</ele>
        <time>2020-06-01T12:18:06Z</time>
      </trkpt>
      <trkpt lat="52.174400000" lon="7.642510000">
        <ele>47</ele>
        <time>2020-06-01T12:18:08Z</time>
      </trkpt>
      <trkpt lat="52.174360000" lon="7.642370000">
        <ele>47</ele>
        <time>2020-06-01T12:18:10Z</time>
      </trkpt>
      <trkpt lat="52.174340000" lon="7.642300000">
        <ele>47</ele>
        <time>2020-06-01T12:18:11Z</time>
      </trkpt>
      <trkpt lat="52.174320000" lon="7.642230000">
        <ele>47</ele>
        <time>2020-06-01T12:18:12Z</time>
      </trkpt>
      <trkpt lat="52.174300000" lon="7.642160000">
        <ele>47</ele>
        <time>2020-06-01T12:18:13Z</time>
      </trkpt>
      <trkpt lat="52.174280000" lon="7.642100000">
        <ele>47</ele>
        <time>2020-06-01T12:18:14Z</time>
      </trkpt>
      <trkpt lat="52.174240000" lon="7.641980000">
        <ele>47</ele>
        <time>2020-06-01T12:18:16Z</time>
      </trkpt>
      <trkpt lat="52.174210000" lon="7.641860000">
        <ele>47</ele>
        <time>2020-06-01T12:18:18Z</time>
      </trkpt>
      <trkpt lat="52.174180000" lon="7.641740000">
        <ele>47</ele>
        <time>2020-06-01T12:18:20Z</time>
      </trkpt>
      <trkpt lat="52.174150000" lon="7.641630000">
        <ele>47</ele>
        <time>2020-06-01T12:18:22Z</time>
      </trkpt>
      <trkpt lat="52.174100000" lon="7.641510000">
        <ele>48</ele>
        <time>2020-06-01T12:18:24Z</time>
      </trkpt>
      <trkpt lat="52.174050000" lon="7.641400000">
        <ele>48</ele>
        <time>2020-06-01T12:18:26Z</time>
      </trkpt>
      <trkpt lat="52.174030000" lon="7.641280000">
        <ele>48</ele>
        <time>2020-06-01T12:18:28Z</time>
      </trkpt>
      <trkpt lat="52.174010000" lon="7.641160000">
        <ele>48</ele>
        <time>2020-06-01T12:18:30Z</time>
      </trkpt>
      <trkpt lat="52.173980000" lon="7.641020000">
        <ele>48</ele>
        <time>2020-06-01T12:18:32Z</time>
      </trkpt>
      <trkpt lat="52.173960000" lon="7.640880000">
        <ele>48</ele>
        <time>2020-06-01T12:18:34Z</time>
      </trkpt>
      <trkpt lat="52.173940000" lon="7.640760000">
        <ele>48</ele>
        <time>2020-06-01T12:18:36Z</time>
      </trkpt>
      <trkpt lat="52.173920000" lon="7.640620000">
        <ele>48</ele>
        <time>2020-06-01T12:18:38Z</time>
      </trkpt>
      <trkpt lat="52.173900000" lon="7.640510000">
        <ele>48</ele>
        <time>2020-06-01T12:18:40Z</time>
      </trkpt>
      <trkpt lat="52.173890000" lon="7.640430000">
        <ele>48</ele>
        <time>2020-06-01T12:18:41Z</time>
      </trkpt>
      <trkpt lat="52.173870000" lon="7.640300000">
        <ele>48</ele>
        <time>2020-06-01T12:18:43Z</time>
      </trkpt>
      <trkpt lat="52.173850000" lon="7.640160000">
        <ele>48</ele>
        <time>2020-06-01T12:18:45Z</time>
      </trkpt>
      <trkpt lat="52.173830000" lon="7.640040000">
        <ele>48</ele>
        <time>2020-06-01T12:18:47Z</time>
      </trkpt>
      <trkpt lat="52.173820000" lon="7.639960000">
        <ele>48</ele>
        <time>2020-06-01T12:18:48Z</time>
      </trkpt>
      <trkpt lat="52.173800000" lon="7.639820000">
        <ele>48</ele>
        <time>2020-06-01T12:18:50Z</time>
      </trkpt>
      <trkpt lat="52.173790000" lon="7.639610000">
        <ele>48</ele>
        <time>2020-06-01T12:18:53Z</time>
      </trkpt>
      <trkpt lat="52.173790000" lon="7.639450000">
        <ele>48</ele>
        <time>2020-06-01T12:18:55Z</time>
      </trkpt>
      <trkpt lat="52.173790000" lon="7.639380000">
        <ele>48</ele>
        <time>2020-06-01T12:18:56Z</time>
      </trkpt>
      <trkpt lat="52.173840000" lon="7.639180000">
        <ele>48</ele>
        <time>2020-06-01T12:18:59Z</time>
      </trkpt>
      <trkpt lat="52.173850000" lon="7.639050000">
        <ele>48</ele>
        <time>2020-06-01T12:19:01Z</time>
      </trkpt>
      <trkpt lat="52.173840000" lon="7.638900000">
        <ele>48</ele>
        <time>2020-06-01T12:19:03Z</time>
      </trkpt>
      <trkpt lat="52.173840000" lon="7.638820000">
        <ele>48</ele>
        <time>2020-06-01T12:19:04Z</time>
      </trkpt>
      <trkpt lat="52.173840000" lon="7.638750000">
        <ele>48</ele>
        <time>2020-06-01T12:19:05Z</time>
      </trkpt>
      <trkpt lat="52.173810000" lon="7.638680000">
        <ele>48</ele>
        <time>2020-06-01T12:19:06Z</time>
      </trkpt>
      <trkpt lat="52.173780000" lon="7.638550000">
        <ele>48</ele>
        <time>2020-06-01T12:19:08Z</time>
      </trkpt>
      <trkpt lat="52.173780000" lon="7.638400000">
        <ele>48</ele>
        <time>2020-06-01T12:19:10Z</time>
      </trkpt>
      <trkpt lat="52.173780000" lon="7.638320000">
        <ele>48</ele>
        <time>2020-06-01T12:19:11Z</time>
      </trkpt>
      <trkpt lat="52.173760000" lon="7.638160000">
        <ele>48</ele>
        <time>2020-06-01T12:19:13Z</time>
      </trkpt>
      <trkpt lat="52.173750000" lon="7.638080000">
        <ele>48</ele>
        <time>2020-06-01T12:19:15Z</time>
      </trkpt>
      <trkpt lat="52.173740000" lon="7.638000000">
        <ele>48</ele>
        <time>2020-06-01T12:19:16Z</time>
      </trkpt>
      <trkpt lat="52.173720000" lon="7.637890000">
        <ele>47</ele>
        <time>2020-06-01T12:19:18Z</time>
      </trkpt>
      <trkpt lat="52.173700000" lon="7.637770000">
        <ele>47</ele>
        <time>2020-06-01T12:19:20Z</time>
      </trkpt>
      <trkpt lat="52.173670000" lon="7.637640000">
        <ele>47</ele>
        <time>2020-06-01T12:19:22Z</time>
      </trkpt>
      <trkpt lat="52.173660000" lon="7.637570000">
        <ele>47</ele>
        <time>2020-06-01T12:19:23Z</time>
      </trkpt>
      <trkpt lat="52.173640000" lon="7.637440000">
        <ele>47</ele>
        <time>2020-06-01T12:19:25Z</time>
      </trkpt>
      <trkpt lat="52.173620000" lon="7.637290000">
        <ele>47</ele>
        <time>2020-06-01T12:19:27Z</time>
      </trkpt>
      <trkpt lat="52.173610000" lon="7.637210000">
        <ele>47</ele>
        <time>2020-06-01T12:19:28Z</time>
      </trkpt>
      <trkpt lat="52.173580000" lon="7.637080000">
        <ele>47</ele>
        <time>2020-06-01T12:19:30Z</time>
      </trkpt>
      <trkpt lat="52.173560000" lon="7.636960000">
        <ele>47</ele>
        <time>2020-06-01T12:19:32Z</time>
      </trkpt>
      <trkpt lat="52.173530000" lon="7.636850000">
        <ele>47</ele>
        <time>2020-06-01T12:19:34Z</time>
      </trkpt>
      <trkpt lat="52.173510000" lon="7.636730000">
        <ele>47</ele>
        <time>2020-06-01T12:19:36Z</time>
      </trkpt>
      <trkpt lat="52.173490000" lon="7.636600000">
        <ele>47</ele>
        <time>2020-06-01T12:19:38Z</time>
      </trkpt>
      <trkpt lat="52.173450000" lon="7.636470000">
        <ele>47</ele>
        <time>2020-06-01T12:19:40Z</time>
      </trkpt>
      <trkpt lat="52.173420000" lon="7.636400000">
        <ele>47</ele>
        <time>2020-06-01T12:19:41Z</time>
      </trkpt>
      <trkpt lat="52.173410000" lon="7.636330000">
        <ele>47</ele>
        <time>2020-06-01T12:19:42Z</time>
      </trkpt>
      <trkpt lat="52.173380000" lon="7.636260000">
        <ele>47</ele>
        <time>2020-06-01T12:19:43Z</time>
      </trkpt>
      <trkpt lat="52.173340000" lon="7.636140000">
        <ele>47</ele>
        <time>2020-06-01T12:19:45Z</time>
      </trkpt>
      <trkpt lat="52.173310000" lon="7.636090000">
        <ele>47</ele>
        <time>2020-06-01T12:19:46Z</time>
      </trkpt>
      <trkpt lat="52.173260000" lon="7.636000000">
        <ele>47</ele>
        <time>2020-06-01T12:19:47Z</time>
      </trkpt>
      <trkpt lat="52.173230000" lon="7.635910000">
        <ele>47</ele>
        <time>2020-06-01T12:19:49Z</time>
      </trkpt>
      <trkpt lat="52.173200000" lon="7.635850000">
        <ele>47</ele>
        <time>2020-06-01T12:19:50Z</time>
      </trkpt>
      <trkpt lat="52.173160000" lon="7.635730000">
        <ele>47</ele>
        <time>2020-06-01T12:19:52Z</time>
      </trkpt>
      <trkpt lat="52.173120000" lon="7.635610000">
        <ele>47</ele>
        <time>2020-06-01T12:19:54Z</time>
      </trkpt>
      <trkpt lat="52.173070000" lon="7.635490000">
        <ele>47</ele>
        <time>2020-06-01T12:19:56Z</time>
      </trkpt>
      <trkpt lat="52.173040000" lon="7.635430000">
        <ele>46</ele>
        <time>2020-06-01T12:19:57Z</time>
      </trkpt>
      <trkpt lat="52.173000000" lon="7.635320000">
        <ele>46</ele>
        <time>2020-06-01T12:19:59Z</time>
      </trkpt>
      <trkpt lat="52.172980000" lon="7.635110000">
        <ele>46</ele>
        <time>2020-06-01T12:20:01Z</time>
      </trkpt>
      <trkpt lat="52.173020000" lon="7.635020000">
        <ele>46</ele>
        <time>2020-06-01T12:20:05Z</time>
      </trkpt>
      <trkpt lat="52.173040000" lon="7.634900000">
        <ele>46</ele>
        <time>2020-06-01T12:20:07Z</time>
      </trkpt>
      <trkpt lat="52.173050000" lon="7.634780000">
        <ele>45</ele>
        <time>2020-06-01T12:20:09Z</time>
      </trkpt>
      <trkpt lat="52.173060000" lon="7.634680000">
        <ele>45</ele>
        <time>2020-06-01T12:20:10Z</time>
      </trkpt>
      <trkpt lat="52.173060000" lon="7.634600000">
        <ele>46</ele>
        <time>2020-06-01T12:20:12Z</time>
      </trkpt>
      <trkpt lat="52.173080000" lon="7.634480000">
        <ele>46</ele>
        <time>2020-06-01T12:20:14Z</time>
      </trkpt>
      <trkpt lat="52.173110000" lon="7.634350000">
        <ele>46</ele>
        <time>2020-06-01T12:20:16Z</time>
      </trkpt>
      <trkpt lat="52.173140000" lon="7.634230000">
        <ele>46</ele>
        <time>2020-06-01T12:20:18Z</time>
      </trkpt>
      <trkpt lat="52.173160000" lon="7.634100000">
        <ele>46</ele>
        <time>2020-06-01T12:20:20Z</time>
      </trkpt>
      <trkpt lat="52.173200000" lon="7.633980000">
        <ele>46</ele>
        <time>2020-06-01T12:20:22Z</time>
      </trkpt>
      <trkpt lat="52.173210000" lon="7.633860000">
        <ele>46</ele>
        <time>2020-06-01T12:20:24Z</time>
      </trkpt>
      <trkpt lat="52.173230000" lon="7.633770000">
        <ele>46</ele>
        <time>2020-06-01T12:20:25Z</time>
      </trkpt>
      <trkpt lat="52.173280000" lon="7.633660000">
        <ele>46</ele>
        <time>2020-06-01T12:20:30Z</time>
      </trkpt>
      <trkpt lat="52.173280000" lon="7.633570000">
        <ele>46</ele>
        <time>2020-06-01T12:20:33Z</time>
      </trkpt>
      <trkpt lat="52.173230000" lon="7.633560000">
        <ele>46</ele>
        <time>2020-06-01T12:20:35Z</time>
      </trkpt>
      <trkpt lat="52.173220000" lon="7.633430000">
        <ele>46</ele>
        <time>2020-06-01T12:20:36Z</time>
      </trkpt>
      <trkpt lat="52.173180000" lon="7.633330000">
        <ele>45</ele>
        <time>2020-06-01T12:20:38Z</time>
      </trkpt>
      <trkpt lat="52.173150000" lon="7.633210000">
        <ele>45</ele>
        <time>2020-06-01T12:20:40Z</time>
      </trkpt>
      <trkpt lat="52.173110000" lon="7.633070000">
        <ele>45</ele>
        <time>2020-06-01T12:20:42Z</time>
      </trkpt>
      <trkpt lat="52.173090000" lon="7.633000000">
        <ele>45</ele>
        <time>2020-06-01T12:20:43Z</time>
      </trkpt>
      <trkpt lat="52.173080000" lon="7.632930000">
        <ele>45</ele>
        <time>2020-06-01T12:20:44Z</time>
      </trkpt>
      <trkpt lat="52.173060000" lon="7.632860000">
        <ele>45</ele>
        <time>2020-06-01T12:20:45Z</time>
      </trkpt>
      <trkpt lat="52.173030000" lon="7.632790000">
        <ele>45</ele>
        <time>2020-06-01T12:20:46Z</time>
      </trkpt>
      <trkpt lat="52.173000000" lon="7.632730000">
        <ele>45</ele>
        <time>2020-06-01T12:20:47Z</time>
      </trkpt>
      <trkpt lat="52.172960000" lon="7.632590000">
        <ele>45</ele>
        <time>2020-06-01T12:20:49Z</time>
      </trkpt>
      <trkpt lat="52.172920000" lon="7.632460000">
        <ele>45</ele>
        <time>2020-06-01T12:20:51Z</time>
      </trkpt>
      <trkpt lat="52.172900000" lon="7.632320000">
        <ele>45</ele>
        <time>2020-06-01T12:20:53Z</time>
      </trkpt>
      <trkpt lat="52.172890000" lon="7.632190000">
        <ele>45</ele>
        <time>2020-06-01T12:20:55Z</time>
      </trkpt>
      <trkpt lat="52.172900000" lon="7.632080000">
        <ele>45</ele>
        <time>2020-06-01T12:20:57Z</time>
      </trkpt>
      <trkpt lat="52.172920000" lon="7.631920000">
        <ele>45</ele>
        <time>2020-06-01T12:21:00Z</time>
      </trkpt>
      <trkpt lat="52.172900000" lon="7.631840000">
        <ele>45</ele>
        <time>2020-06-01T12:21:08Z</time>
      </trkpt>
      <trkpt lat="52.172870000" lon="7.631760000">
        <ele>45</ele>
        <time>2020-06-01T12:21:19Z</time>
      </trkpt>
      <trkpt lat="52.172880000" lon="7.631860000">
        <ele>45</ele>
        <time>2020-06-01T12:21:20Z</time>
      </trkpt>
      <trkpt lat="52.172850000" lon="7.631660000">
        <ele>45</ele>
        <time>2020-06-01T12:21:21Z</time>
      </trkpt>
      <trkpt lat="52.172800000" lon="7.631630000">
        <ele>45</ele>
        <time>2020-06-01T12:21:23Z</time>
      </trkpt>
      <trkpt lat="52.172760000" lon="7.631590000">
        <ele>45</ele>
        <time>2020-06-01T12:21:25Z</time>
      </trkpt>
      <trkpt lat="52.172710000" lon="7.631530000">
        <ele>45</ele>
        <time>2020-06-01T12:21:28Z</time>
      </trkpt>
      <trkpt lat="52.172670000" lon="7.631480000">
        <ele>45</ele>
        <time>2020-06-01T12:21:30Z</time>
      </trkpt>
      <trkpt lat="52.172610000" lon="7.631370000">
        <ele>45</ele>
        <time>2020-06-01T12:21:34Z</time>
      </trkpt>
      <trkpt lat="52.172580000" lon="7.631310000">
        <ele>45</ele>
        <time>2020-06-01T12:21:36Z</time>
      </trkpt>
      <trkpt lat="52.172540000" lon="7.631220000">
        <ele>45</ele>
        <time>2020-06-01T12:21:39Z</time>
      </trkpt>
      <trkpt lat="52.172500000" lon="7.631140000">
        <ele>45</ele>
        <time>2020-06-01T12:21:42Z</time>
      </trkpt>
      <trkpt lat="52.172470000" lon="7.631080000">
        <ele>45</ele>
        <time>2020-06-01T12:21:44Z</time>
      </trkpt>
      <trkpt lat="52.172430000" lon="7.631000000">
        <ele>45</ele>
        <time>2020-06-01T12:21:47Z</time>
      </trkpt>
      <trkpt lat="52.172400000" lon="7.630940000">
        <ele>45</ele>
        <time>2020-06-01T12:21:49Z</time>
      </trkpt>
      <trkpt lat="52.172370000" lon="7.630870000">
        <ele>44</ele>
        <time>2020-06-01T12:21:51Z</time>
      </trkpt>
      <trkpt lat="52.172340000" lon="7.630800000">
        <ele>44</ele>
        <time>2020-06-01T12:21:54Z</time>
      </trkpt>
      <trkpt lat="52.172310000" lon="7.630740000">
        <ele>44</ele>
        <time>2020-06-01T12:21:56Z</time>
      </trkpt>
      <trkpt lat="52.172270000" lon="7.630660000">
        <ele>44</ele>
        <time>2020-06-01T12:21:59Z</time>
      </trkpt>
      <trkpt lat="52.172220000" lon="7.630570000">
        <ele>44</ele>
        <time>2020-06-01T12:22:01Z</time>
      </trkpt>
      <trkpt lat="52.172180000" lon="7.630460000">
        <ele>44</ele>
        <time>2020-06-01T12:22:04Z</time>
      </trkpt>
      <trkpt lat="52.172160000" lon="7.630380000">
        <ele>44</ele>
        <time>2020-06-01T12:22:06Z</time>
      </trkpt>
      <trkpt lat="52.172130000" lon="7.630260000">
        <ele>44</ele>
        <time>2020-06-01T12:22:08Z</time>
      </trkpt>
      <trkpt lat="52.172110000" lon="7.630150000">
        <ele>44</ele>
        <time>2020-06-01T12:22:10Z</time>
      </trkpt>
      <trkpt lat="52.172100000" lon="7.630030000">
        <ele>44</ele>
        <time>2020-06-01T12:22:12Z</time>
      </trkpt>
      <trkpt lat="52.172100000" lon="7.629880000">
        <ele>44</ele>
        <time>2020-06-01T12:22:15Z</time>
      </trkpt>
      <trkpt lat="52.172100000" lon="7.629790000">
        <ele>44</ele>
        <time>2020-06-01T12:22:17Z</time>
      </trkpt>
      <trkpt lat="52.172100000" lon="7.629690000">
        <ele>43</ele>
        <time>2020-06-01T12:22:19Z</time>
      </trkpt>
      <trkpt lat="52.172110000" lon="7.629590000">
        <ele>43</ele>
        <time>2020-06-01T12:22:21Z</time>
      </trkpt>
      <trkpt lat="52.172120000" lon="7.629490000">
        <ele>43</ele>
        <time>2020-06-01T12:22:23Z</time>
      </trkpt>
      <trkpt lat="52.172130000" lon="7.629390000">
        <ele>43</ele>
        <time>2020-06-01T12:22:25Z</time>
      </trkpt>
      <trkpt lat="52.172140000" lon="7.629310000">
        <ele>43</ele>
        <time>2020-06-01T12:22:26Z</time>
      </trkpt>
      <trkpt lat="52.172160000" lon="7.629210000">
        <ele>43</ele>
        <time>2020-06-01T12:22:28Z</time>
      </trkpt>
      <trkpt lat="52.172170000" lon="7.629110000">
        <ele>43</ele>
        <time>2020-06-01T12:22:30Z</time>
      </trkpt>
      <trkpt lat="52.172190000" lon="7.629000000">
        <ele>43</ele>
        <time>2020-06-01T12:22:32Z</time>
      </trkpt>
      <trkpt lat="52.172200000" lon="7.628900000">
        <ele>43</ele>
        <time>2020-06-01T12:22:34Z</time>
      </trkpt>
      <trkpt lat="52.172220000" lon="7.628810000">
        <ele>42</ele>
        <time>2020-06-01T12:22:36Z</time>
      </trkpt>
      <trkpt lat="52.172230000" lon="7.628710000">
        <ele>42</ele>
        <time>2020-06-01T12:22:38Z</time>
      </trkpt>
      <trkpt lat="52.172240000" lon="7.628620000">
        <ele>42</ele>
        <time>2020-06-01T12:22:40Z</time>
      </trkpt>
      <trkpt lat="52.172260000" lon="7.628530000">
        <ele>42</ele>
        <time>2020-06-01T12:22:42Z</time>
      </trkpt>
      <trkpt lat="52.172270000" lon="7.628430000">
        <ele>42</ele>
        <time>2020-06-01T12:22:44Z</time>
      </trkpt>
      <trkpt lat="52.172280000" lon="7.628320000">
        <ele>43</ele>
        <time>2020-06-01T12:22:46Z</time>
      </trkpt>
      <trkpt lat="52.172290000" lon="7.628250000">
        <ele>43</ele>
        <time>2020-06-01T12:22:53Z</time>
      </trkpt>
      <trkpt lat="52.172290000" lon="7.628180000">
        <ele>43</ele>
        <time>2020-06-01T12:23:57Z</time>
      </trkpt>
    </trkseg>
  </trk>
</gpx>